<?xml version="1.0" encoding="UTF-8" standalone="no" ?>
<gpx xmlns="http://www.topografix.com/GPX/1/1" xmlns:xsi="http://www.w3.org/2001/XMLSchema-instance" xsi:schemaLocation="http://www.topografix.com/GPX/1/1 http://www.topografix.com/GPX/1/1/gpx.xsd" version="1.1" creator="VisuGPX - https://www.visugpx.com">
  <metadata>
    <name>rando col du Fayet</name>
  </metadata>
  <trk>
    <name><![CDATA[rando col du Fayet]]></name>
    <extensions>
      <line xmlns="http://www.topografix.com/GPX/gpx_style/0/2">
        <color>0000FF</color>
        <width>4</width>
      </line>
    </extensions>
    <trkseg>
      <trkpt lat="45.30806" lon="4.68584">
        <ele>607</ele>
        <time>2022-01-08T12:44:33Z</time>
      </trkpt>
      <trkpt lat="45.30806" lon="4.68585">
        <ele>613.20001220703</ele>
        <time>2022-01-08T12:44:34Z</time>
      </trkpt>
      <trkpt lat="45.30806" lon="4.68585">
        <ele>613.20001220703</ele>
        <time>2022-01-08T12:44:35Z</time>
      </trkpt>
      <trkpt lat="45.30806" lon="4.68592">
        <ele>613</ele>
        <time>2022-01-08T12:44:41Z</time>
      </trkpt>
      <trkpt lat="45.30806" lon="4.68612">
        <ele>614</ele>
        <time>2022-01-08T12:44:58Z</time>
      </trkpt>
      <trkpt lat="45.30807" lon="4.6864">
        <ele>613.79998779297</ele>
        <time>2022-01-08T12:45:17Z</time>
      </trkpt>
      <trkpt lat="45.3081" lon="4.68658">
        <ele>614</ele>
        <time>2022-01-08T12:45:29Z</time>
      </trkpt>
      <trkpt lat="45.30809" lon="4.68668">
        <ele>614</ele>
        <time>2022-01-08T12:45:35Z</time>
      </trkpt>
      <trkpt lat="45.30811" lon="4.68685">
        <ele>615</ele>
        <time>2022-01-08T12:45:45Z</time>
      </trkpt>
      <trkpt lat="45.30801" lon="4.68704">
        <ele>617.20001220703</ele>
        <time>2022-01-08T12:45:59Z</time>
      </trkpt>
      <trkpt lat="45.308" lon="4.68705">
        <ele>617.20001220703</ele>
        <time>2022-01-08T12:46:00Z</time>
      </trkpt>
      <trkpt lat="45.30791" lon="4.68721">
        <ele>619.40002441406</ele>
        <time>2022-01-08T12:46:12Z</time>
      </trkpt>
      <trkpt lat="45.30781" lon="4.68733">
        <ele>621</ele>
        <time>2022-01-08T12:46:23Z</time>
      </trkpt>
      <trkpt lat="45.30771" lon="4.68751">
        <ele>622.20001220703</ele>
        <time>2022-01-08T12:46:34Z</time>
      </trkpt>
      <trkpt lat="45.30771" lon="4.68753">
        <ele>622.40002441406</ele>
        <time>2022-01-08T12:46:35Z</time>
      </trkpt>
      <trkpt lat="45.30764" lon="4.68771">
        <ele>623.59997558594</ele>
        <time>2022-01-08T12:46:45Z</time>
      </trkpt>
      <trkpt lat="45.30764" lon="4.68773">
        <ele>623.59997558594</ele>
        <time>2022-01-08T12:46:46Z</time>
      </trkpt>
      <trkpt lat="45.30765" lon="4.68775">
        <ele>624</ele>
        <time>2022-01-08T12:46:48Z</time>
      </trkpt>
      <trkpt lat="45.30759" lon="4.68795">
        <ele>625</ele>
        <time>2022-01-08T12:46:58Z</time>
      </trkpt>
      <trkpt lat="45.30757" lon="4.68815">
        <ele>626.20001220703</ele>
        <time>2022-01-08T12:47:10Z</time>
      </trkpt>
      <trkpt lat="45.3076" lon="4.6883">
        <ele>627</ele>
        <time>2022-01-08T12:47:16Z</time>
      </trkpt>
      <trkpt lat="45.30759" lon="4.68833">
        <ele>627.40002441406</ele>
        <time>2022-01-08T12:47:18Z</time>
      </trkpt>
      <trkpt lat="45.30763" lon="4.68851">
        <ele>628.59997558594</ele>
        <time>2022-01-08T12:47:29Z</time>
      </trkpt>
      <trkpt lat="45.30768" lon="4.68872">
        <ele>629.59997558594</ele>
        <time>2022-01-08T12:47:39Z</time>
      </trkpt>
      <trkpt lat="45.30772" lon="4.6889">
        <ele>630.40002441406</ele>
        <time>2022-01-08T12:47:49Z</time>
      </trkpt>
      <trkpt lat="45.30772" lon="4.68908">
        <ele>630.59997558594</ele>
        <time>2022-01-08T12:47:59Z</time>
      </trkpt>
      <trkpt lat="45.30772" lon="4.68941">
        <ele>629.20001220703</ele>
        <time>2022-01-08T12:48:16Z</time>
      </trkpt>
      <trkpt lat="45.30771" lon="4.68949">
        <ele>628.59997558594</ele>
        <time>2022-01-08T12:48:21Z</time>
      </trkpt>
      <trkpt lat="45.30769" lon="4.68956">
        <ele>628</ele>
        <time>2022-01-08T12:48:25Z</time>
      </trkpt>
      <trkpt lat="45.30768" lon="4.6896">
        <ele>628</ele>
        <time>2022-01-08T12:48:27Z</time>
      </trkpt>
      <trkpt lat="45.30758" lon="4.68985">
        <ele>625.59997558594</ele>
        <time>2022-01-08T12:48:39Z</time>
      </trkpt>
      <trkpt lat="45.30758" lon="4.68987">
        <ele>625.59997558594</ele>
        <time>2022-01-08T12:48:40Z</time>
      </trkpt>
      <trkpt lat="45.30744" lon="4.69012">
        <ele>623.40002441406</ele>
        <time>2022-01-08T12:48:52Z</time>
      </trkpt>
      <trkpt lat="45.30742" lon="4.69023">
        <ele>622.40002441406</ele>
        <time>2022-01-08T12:48:58Z</time>
      </trkpt>
      <trkpt lat="45.30742" lon="4.6904">
        <ele>620.59997558594</ele>
        <time>2022-01-08T12:49:09Z</time>
      </trkpt>
      <trkpt lat="45.30741" lon="4.69046">
        <ele>620</ele>
        <time>2022-01-08T12:49:12Z</time>
      </trkpt>
      <trkpt lat="45.3074" lon="4.69062">
        <ele>619.40002441406</ele>
        <time>2022-01-08T12:49:20Z</time>
      </trkpt>
      <trkpt lat="45.30738" lon="4.69072">
        <ele>619</ele>
        <time>2022-01-08T12:49:25Z</time>
      </trkpt>
      <trkpt lat="45.30734" lon="4.69084">
        <ele>619</ele>
        <time>2022-01-08T12:49:29Z</time>
      </trkpt>
      <trkpt lat="45.30736" lon="4.69104">
        <ele>618.40002441406</ele>
        <time>2022-01-08T12:49:38Z</time>
      </trkpt>
      <trkpt lat="45.30735" lon="4.6912">
        <ele>618.20001220703</ele>
        <time>2022-01-08T12:49:45Z</time>
      </trkpt>
      <trkpt lat="45.30732" lon="4.69137">
        <ele>618.20001220703</ele>
        <time>2022-01-08T12:49:53Z</time>
      </trkpt>
      <trkpt lat="45.30724" lon="4.69163">
        <ele>618.40002441406</ele>
        <time>2022-01-08T12:50:07Z</time>
      </trkpt>
      <trkpt lat="45.30724" lon="4.69167">
        <ele>618.40002441406</ele>
        <time>2022-01-08T12:50:09Z</time>
      </trkpt>
      <trkpt lat="45.30723" lon="4.69171">
        <ele>618.40002441406</ele>
        <time>2022-01-08T12:50:11Z</time>
      </trkpt>
      <trkpt lat="45.30722" lon="4.69192">
        <ele>619</ele>
        <time>2022-01-08T12:50:19Z</time>
      </trkpt>
      <trkpt lat="45.30727" lon="4.6922">
        <ele>619.20001220703</ele>
        <time>2022-01-08T12:50:32Z</time>
      </trkpt>
      <trkpt lat="45.30729" lon="4.69229">
        <ele>619.20001220703</ele>
        <time>2022-01-08T12:50:38Z</time>
      </trkpt>
      <trkpt lat="45.30737" lon="4.69264">
        <ele>619.79998779297</ele>
        <time>2022-01-08T12:50:56Z</time>
      </trkpt>
      <trkpt lat="45.30734" lon="4.69266">
        <ele>620.40002441406</ele>
        <time>2022-01-08T12:51:02Z</time>
      </trkpt>
      <trkpt lat="45.30731" lon="4.6927">
        <ele>621.59997558594</ele>
        <time>2022-01-08T12:51:07Z</time>
      </trkpt>
      <trkpt lat="45.30731" lon="4.69276">
        <ele>624.20001220703</ele>
        <time>2022-01-08T12:51:14Z</time>
      </trkpt>
      <trkpt lat="45.30737" lon="4.69294">
        <ele>625.79998779297</ele>
        <time>2022-01-08T12:51:21Z</time>
      </trkpt>
      <trkpt lat="45.30737" lon="4.69297">
        <ele>626</ele>
        <time>2022-01-08T12:51:23Z</time>
      </trkpt>
      <trkpt lat="45.30738" lon="4.69305">
        <ele>627.79998779297</ele>
        <time>2022-01-08T12:51:31Z</time>
      </trkpt>
      <trkpt lat="45.30738" lon="4.69306">
        <ele>628.20001220703</ele>
        <time>2022-01-08T12:51:32Z</time>
      </trkpt>
      <trkpt lat="45.30742" lon="4.69321">
        <ele>630.40002441406</ele>
        <time>2022-01-08T12:51:43Z</time>
      </trkpt>
      <trkpt lat="45.30742" lon="4.69327">
        <ele>631.40002441406</ele>
        <time>2022-01-08T12:51:47Z</time>
      </trkpt>
      <trkpt lat="45.30749" lon="4.69342">
        <ele>633</ele>
        <time>2022-01-08T12:51:54Z</time>
      </trkpt>
      <trkpt lat="45.30751" lon="4.69347">
        <ele>633.79998779297</ele>
        <time>2022-01-08T12:51:57Z</time>
      </trkpt>
      <trkpt lat="45.30753" lon="4.69363">
        <ele>635.20001220703</ele>
        <time>2022-01-08T12:52:05Z</time>
      </trkpt>
      <trkpt lat="45.30757" lon="4.69374">
        <ele>637</ele>
        <time>2022-01-08T12:52:13Z</time>
      </trkpt>
      <trkpt lat="45.30766" lon="4.69395">
        <ele>637.79998779297</ele>
        <time>2022-01-08T12:52:24Z</time>
      </trkpt>
      <trkpt lat="45.30773" lon="4.69407">
        <ele>637.40002441406</ele>
        <time>2022-01-08T12:52:31Z</time>
      </trkpt>
      <trkpt lat="45.30782" lon="4.69429">
        <ele>637.79998779297</ele>
        <time>2022-01-08T12:52:42Z</time>
      </trkpt>
      <trkpt lat="45.30789" lon="4.69449">
        <ele>637.79998779297</ele>
        <time>2022-01-08T12:52:54Z</time>
      </trkpt>
      <trkpt lat="45.30794" lon="4.6947">
        <ele>637.79998779297</ele>
        <time>2022-01-08T12:53:07Z</time>
      </trkpt>
      <trkpt lat="45.308" lon="4.69484">
        <ele>637.79998779297</ele>
        <time>2022-01-08T12:53:13Z</time>
      </trkpt>
      <trkpt lat="45.30802" lon="4.6949">
        <ele>637.79998779297</ele>
        <time>2022-01-08T12:53:16Z</time>
      </trkpt>
      <trkpt lat="45.30804" lon="4.6951">
        <ele>638</ele>
        <time>2022-01-08T12:53:25Z</time>
      </trkpt>
      <trkpt lat="45.30803" lon="4.69527">
        <ele>638</ele>
        <time>2022-01-08T12:53:33Z</time>
      </trkpt>
      <trkpt lat="45.30803" lon="4.69532">
        <ele>638</ele>
        <time>2022-01-08T12:53:36Z</time>
      </trkpt>
      <trkpt lat="45.30803" lon="4.69545">
        <ele>638</ele>
        <time>2022-01-08T12:53:42Z</time>
      </trkpt>
      <trkpt lat="45.30803" lon="4.6955">
        <ele>637.79998779297</ele>
        <time>2022-01-08T12:53:45Z</time>
      </trkpt>
      <trkpt lat="45.30812" lon="4.69575">
        <ele>639</ele>
        <time>2022-01-08T12:54:00Z</time>
      </trkpt>
      <trkpt lat="45.30821" lon="4.69601">
        <ele>638.79998779297</ele>
        <time>2022-01-08T12:54:12Z</time>
      </trkpt>
      <trkpt lat="45.30825" lon="4.69607">
        <ele>638.79998779297</ele>
        <time>2022-01-08T12:54:15Z</time>
      </trkpt>
      <trkpt lat="45.30824" lon="4.69624">
        <ele>638.20001220703</ele>
        <time>2022-01-08T12:54:23Z</time>
      </trkpt>
      <trkpt lat="45.30828" lon="4.69641">
        <ele>637.59997558594</ele>
        <time>2022-01-08T12:54:30Z</time>
      </trkpt>
      <trkpt lat="45.30834" lon="4.69659">
        <ele>637.79998779297</ele>
        <time>2022-01-08T12:54:38Z</time>
      </trkpt>
      <trkpt lat="45.30841" lon="4.69677">
        <ele>638.20001220703</ele>
        <time>2022-01-08T12:54:46Z</time>
      </trkpt>
      <trkpt lat="45.30842" lon="4.69678">
        <ele>638.20001220703</ele>
        <time>2022-01-08T12:54:47Z</time>
      </trkpt>
      <trkpt lat="45.30844" lon="4.6968">
        <ele>638.40002441406</ele>
        <time>2022-01-08T12:54:49Z</time>
      </trkpt>
      <trkpt lat="45.30839" lon="4.69687">
        <ele>638.79998779297</ele>
        <time>2022-01-08T12:54:56Z</time>
      </trkpt>
      <trkpt lat="45.30838" lon="4.69697">
        <ele>641.20001220703</ele>
        <time>2022-01-08T12:55:08Z</time>
      </trkpt>
      <trkpt lat="45.30843" lon="4.69701">
        <ele>641.79998779297</ele>
        <time>2022-01-08T12:55:16Z</time>
      </trkpt>
      <trkpt lat="45.30844" lon="4.69699">
        <ele>641.59997558594</ele>
        <time>2022-01-08T12:55:18Z</time>
      </trkpt>
      <trkpt lat="45.30843" lon="4.69699">
        <ele>640.79998779297</ele>
        <time>2022-01-08T12:55:21Z</time>
      </trkpt>
      <trkpt lat="45.3085" lon="4.69721">
        <ele>639</ele>
        <time>2022-01-08T12:55:35Z</time>
      </trkpt>
      <trkpt lat="45.3085" lon="4.69733">
        <ele>641.59997558594</ele>
        <time>2022-01-08T12:55:50Z</time>
      </trkpt>
      <trkpt lat="45.3085" lon="4.69735">
        <ele>642</ele>
        <time>2022-01-08T12:55:51Z</time>
      </trkpt>
      <trkpt lat="45.30846" lon="4.69742">
        <ele>643.79998779297</ele>
        <time>2022-01-08T12:55:57Z</time>
      </trkpt>
      <trkpt lat="45.30846" lon="4.69746">
        <ele>645.20001220703</ele>
        <time>2022-01-08T12:56:00Z</time>
      </trkpt>
      <trkpt lat="45.30847" lon="4.6975">
        <ele>645.79998779297</ele>
        <time>2022-01-08T12:56:02Z</time>
      </trkpt>
      <trkpt lat="45.30845" lon="4.69762">
        <ele>648.20001220703</ele>
        <time>2022-01-08T12:56:10Z</time>
      </trkpt>
      <trkpt lat="45.30842" lon="4.69776">
        <ele>651</ele>
        <time>2022-01-08T12:56:20Z</time>
      </trkpt>
      <trkpt lat="45.30842" lon="4.69776">
        <ele>651.79998779297</ele>
        <time>2022-01-08T12:56:22Z</time>
      </trkpt>
      <trkpt lat="45.30839" lon="4.69786">
        <ele>654</ele>
        <time>2022-01-08T12:56:30Z</time>
      </trkpt>
      <trkpt lat="45.30839" lon="4.69789">
        <ele>654.79998779297</ele>
        <time>2022-01-08T12:56:32Z</time>
      </trkpt>
      <trkpt lat="45.30845" lon="4.69805">
        <ele>655.79998779297</ele>
        <time>2022-01-08T12:56:43Z</time>
      </trkpt>
      <trkpt lat="45.30847" lon="4.69816">
        <ele>655.79998779297</ele>
        <time>2022-01-08T12:56:48Z</time>
      </trkpt>
      <trkpt lat="45.30846" lon="4.69833">
        <ele>656.79998779297</ele>
        <time>2022-01-08T12:56:58Z</time>
      </trkpt>
      <trkpt lat="45.30846" lon="4.69835">
        <ele>657.40002441406</ele>
        <time>2022-01-08T12:57:00Z</time>
      </trkpt>
      <trkpt lat="45.30845" lon="4.69847">
        <ele>659.59997558594</ele>
        <time>2022-01-08T12:57:08Z</time>
      </trkpt>
      <trkpt lat="45.30847" lon="4.69853">
        <ele>660.20001220703</ele>
        <time>2022-01-08T12:57:13Z</time>
      </trkpt>
      <trkpt lat="45.30845" lon="4.69868">
        <ele>661.20001220703</ele>
        <time>2022-01-08T12:57:25Z</time>
      </trkpt>
      <trkpt lat="45.30846" lon="4.6988">
        <ele>662.40002441406</ele>
        <time>2022-01-08T12:57:31Z</time>
      </trkpt>
      <trkpt lat="45.30846" lon="4.69891">
        <ele>663.59997558594</ele>
        <time>2022-01-08T12:57:38Z</time>
      </trkpt>
      <trkpt lat="45.30849" lon="4.69903">
        <ele>664.20001220703</ele>
        <time>2022-01-08T12:57:42Z</time>
      </trkpt>
      <trkpt lat="45.30851" lon="4.69913">
        <ele>664.79998779297</ele>
        <time>2022-01-08T12:57:46Z</time>
      </trkpt>
      <trkpt lat="45.3085" lon="4.69924">
        <ele>665</ele>
        <time>2022-01-08T12:57:51Z</time>
      </trkpt>
      <trkpt lat="45.30849" lon="4.69936">
        <ele>665</ele>
        <time>2022-01-08T12:57:57Z</time>
      </trkpt>
      <trkpt lat="45.30851" lon="4.69953">
        <ele>665</ele>
        <time>2022-01-08T12:58:04Z</time>
      </trkpt>
      <trkpt lat="45.30851" lon="4.69957">
        <ele>665</ele>
        <time>2022-01-08T12:58:06Z</time>
      </trkpt>
      <trkpt lat="45.30851" lon="4.69974">
        <ele>665.20001220703</ele>
        <time>2022-01-08T12:58:15Z</time>
      </trkpt>
      <trkpt lat="45.30849" lon="4.69986">
        <ele>665.79998779297</ele>
        <time>2022-01-08T12:58:24Z</time>
      </trkpt>
      <trkpt lat="45.30845" lon="4.70007">
        <ele>666.79998779297</ele>
        <time>2022-01-08T12:58:36Z</time>
      </trkpt>
      <trkpt lat="45.30837" lon="4.70017">
        <ele>668.20001220703</ele>
        <time>2022-01-08T12:58:43Z</time>
      </trkpt>
      <trkpt lat="45.30837" lon="4.70019">
        <ele>668.40002441406</ele>
        <time>2022-01-08T12:58:44Z</time>
      </trkpt>
      <trkpt lat="45.30832" lon="4.70032">
        <ele>670.20001220703</ele>
        <time>2022-01-08T12:58:52Z</time>
      </trkpt>
      <trkpt lat="45.30825" lon="4.70048">
        <ele>671.79998779297</ele>
        <time>2022-01-08T12:59:01Z</time>
      </trkpt>
      <trkpt lat="45.30819" lon="4.70044">
        <ele>672.79998779297</ele>
        <time>2022-01-08T12:59:08Z</time>
      </trkpt>
      <trkpt lat="45.30816" lon="4.70044">
        <ele>673</ele>
        <time>2022-01-08T12:59:11Z</time>
      </trkpt>
      <trkpt lat="45.30802" lon="4.70048">
        <ele>674.59997558594</ele>
        <time>2022-01-08T12:59:22Z</time>
      </trkpt>
      <trkpt lat="45.30789" lon="4.70048">
        <ele>675.40002441406</ele>
        <time>2022-01-08T12:59:31Z</time>
      </trkpt>
      <trkpt lat="45.30788" lon="4.70048">
        <ele>675.79998779297</ele>
        <time>2022-01-08T12:59:32Z</time>
      </trkpt>
      <trkpt lat="45.30779" lon="4.70046">
        <ele>677.59997558594</ele>
        <time>2022-01-08T12:59:41Z</time>
      </trkpt>
      <trkpt lat="45.30772" lon="4.70046">
        <ele>678.59997558594</ele>
        <time>2022-01-08T12:59:46Z</time>
      </trkpt>
      <trkpt lat="45.30767" lon="4.70042">
        <ele>679</ele>
        <time>2022-01-08T12:59:48Z</time>
      </trkpt>
      <trkpt lat="45.30766" lon="4.7004">
        <ele>679.40002441406</ele>
        <time>2022-01-08T12:59:50Z</time>
      </trkpt>
      <trkpt lat="45.30756" lon="4.70034">
        <ele>680.79998779297</ele>
        <time>2022-01-08T12:59:58Z</time>
      </trkpt>
      <trkpt lat="45.30754" lon="4.70036">
        <ele>681.40002441406</ele>
        <time>2022-01-08T13:00:01Z</time>
      </trkpt>
      <trkpt lat="45.30749" lon="4.70034">
        <ele>682.59997558594</ele>
        <time>2022-01-08T13:00:05Z</time>
      </trkpt>
      <trkpt lat="45.30747" lon="4.70033">
        <ele>682.79998779297</ele>
        <time>2022-01-08T13:00:07Z</time>
      </trkpt>
      <trkpt lat="45.30741" lon="4.70029">
        <ele>683.59997558594</ele>
        <time>2022-01-08T13:00:12Z</time>
      </trkpt>
      <trkpt lat="45.30725" lon="4.70025">
        <ele>685.20001220703</ele>
        <time>2022-01-08T13:00:22Z</time>
      </trkpt>
      <trkpt lat="45.30722" lon="4.70025">
        <ele>685.79998779297</ele>
        <time>2022-01-08T13:00:24Z</time>
      </trkpt>
      <trkpt lat="45.30711" lon="4.70016">
        <ele>686.59997558594</ele>
        <time>2022-01-08T13:00:31Z</time>
      </trkpt>
      <trkpt lat="45.30704" lon="4.70014">
        <ele>688</ele>
        <time>2022-01-08T13:00:38Z</time>
      </trkpt>
      <trkpt lat="45.30696" lon="4.70015">
        <ele>689</ele>
        <time>2022-01-08T13:00:46Z</time>
      </trkpt>
      <trkpt lat="45.30681" lon="4.70007">
        <ele>689.59997558594</ele>
        <time>2022-01-08T13:00:56Z</time>
      </trkpt>
      <trkpt lat="45.3067" lon="4.70001">
        <ele>690.40002441406</ele>
        <time>2022-01-08T13:01:02Z</time>
      </trkpt>
      <trkpt lat="45.3066" lon="4.69996">
        <ele>691.40002441406</ele>
        <time>2022-01-08T13:01:12Z</time>
      </trkpt>
      <trkpt lat="45.30643" lon="4.69988">
        <ele>692.20001220703</ele>
        <time>2022-01-08T13:01:25Z</time>
      </trkpt>
      <trkpt lat="45.3064" lon="4.69984">
        <ele>692.40002441406</ele>
        <time>2022-01-08T13:01:29Z</time>
      </trkpt>
      <trkpt lat="45.30631" lon="4.69984">
        <ele>692.79998779297</ele>
        <time>2022-01-08T13:01:35Z</time>
      </trkpt>
      <trkpt lat="45.30614" lon="4.69984">
        <ele>692.20001220703</ele>
        <time>2022-01-08T13:01:45Z</time>
      </trkpt>
      <trkpt lat="45.30587" lon="4.69987">
        <ele>690.40002441406</ele>
        <time>2022-01-08T13:02:03Z</time>
      </trkpt>
      <trkpt lat="45.30575" lon="4.69994">
        <ele>690</ele>
        <time>2022-01-08T13:02:11Z</time>
      </trkpt>
      <trkpt lat="45.30557" lon="4.70001">
        <ele>689.79998779297</ele>
        <time>2022-01-08T13:02:23Z</time>
      </trkpt>
      <trkpt lat="45.30545" lon="4.70006">
        <ele>690.20001220703</ele>
        <time>2022-01-08T13:02:31Z</time>
      </trkpt>
      <trkpt lat="45.30537" lon="4.70013">
        <ele>690.20001220703</ele>
        <time>2022-01-08T13:02:36Z</time>
      </trkpt>
      <trkpt lat="45.3053" lon="4.70011">
        <ele>690.79998779297</ele>
        <time>2022-01-08T13:02:41Z</time>
      </trkpt>
      <trkpt lat="45.30524" lon="4.70016">
        <ele>691.20001220703</ele>
        <time>2022-01-08T13:02:47Z</time>
      </trkpt>
      <trkpt lat="45.30504" lon="4.70018">
        <ele>691</ele>
        <time>2022-01-08T13:03:00Z</time>
      </trkpt>
      <trkpt lat="45.30484" lon="4.70009">
        <ele>691</ele>
        <time>2022-01-08T13:03:14Z</time>
      </trkpt>
      <trkpt lat="45.3047" lon="4.70003">
        <ele>690.79998779297</ele>
        <time>2022-01-08T13:03:25Z</time>
      </trkpt>
      <trkpt lat="45.30457" lon="4.70001">
        <ele>690.79998779297</ele>
        <time>2022-01-08T13:03:32Z</time>
      </trkpt>
      <trkpt lat="45.30441" lon="4.69997">
        <ele>691</ele>
        <time>2022-01-08T13:03:42Z</time>
      </trkpt>
      <trkpt lat="45.30416" lon="4.69993">
        <ele>690.79998779297</ele>
        <time>2022-01-08T13:03:58Z</time>
      </trkpt>
      <trkpt lat="45.3041" lon="4.69991">
        <ele>690.59997558594</ele>
        <time>2022-01-08T13:04:02Z</time>
      </trkpt>
      <trkpt lat="45.30401" lon="4.69989">
        <ele>690.20001220703</ele>
        <time>2022-01-08T13:04:08Z</time>
      </trkpt>
      <trkpt lat="45.30383" lon="4.69983">
        <ele>688.40002441406</ele>
        <time>2022-01-08T13:04:21Z</time>
      </trkpt>
      <trkpt lat="45.30368" lon="4.6998">
        <ele>687.79998779297</ele>
        <time>2022-01-08T13:04:31Z</time>
      </trkpt>
      <trkpt lat="45.30352" lon="4.69977">
        <ele>687.79998779297</ele>
        <time>2022-01-08T13:04:43Z</time>
      </trkpt>
      <trkpt lat="45.30343" lon="4.69976">
        <ele>688.20001220703</ele>
        <time>2022-01-08T13:05:05Z</time>
      </trkpt>
      <trkpt lat="45.30332" lon="4.69975">
        <ele>688</ele>
        <time>2022-01-08T13:05:29Z</time>
      </trkpt>
      <trkpt lat="45.30324" lon="4.69971">
        <ele>687.20001220703</ele>
        <time>2022-01-08T13:06:06Z</time>
      </trkpt>
      <trkpt lat="45.30323" lon="4.69971">
        <ele>686</ele>
        <time>2022-01-08T13:06:20Z</time>
      </trkpt>
      <trkpt lat="45.30324" lon="4.69971">
        <ele>686</ele>
        <time>2022-01-08T13:07:52Z</time>
      </trkpt>
      <trkpt lat="45.30322" lon="4.69972">
        <ele>685.40002441406</ele>
        <time>2022-01-08T13:08:28Z</time>
      </trkpt>
      <trkpt lat="45.30307" lon="4.69966">
        <ele>684</ele>
        <time>2022-01-08T13:08:58Z</time>
      </trkpt>
      <trkpt lat="45.30291" lon="4.69962">
        <ele>681</ele>
        <time>2022-01-08T13:09:12Z</time>
      </trkpt>
      <trkpt lat="45.30273" lon="4.69954">
        <ele>678.79998779297</ele>
        <time>2022-01-08T13:09:27Z</time>
      </trkpt>
      <trkpt lat="45.30255" lon="4.69937">
        <ele>677.79998779297</ele>
        <time>2022-01-08T13:09:40Z</time>
      </trkpt>
      <trkpt lat="45.30241" lon="4.69921">
        <ele>674.20001220703</ele>
        <time>2022-01-08T13:09:56Z</time>
      </trkpt>
      <trkpt lat="45.30231" lon="4.69907">
        <ele>671.79998779297</ele>
        <time>2022-01-08T13:10:06Z</time>
      </trkpt>
      <trkpt lat="45.30223" lon="4.69905">
        <ele>670.79998779297</ele>
        <time>2022-01-08T13:10:14Z</time>
      </trkpt>
      <trkpt lat="45.30217" lon="4.69911">
        <ele>671.79998779297</ele>
        <time>2022-01-08T13:10:21Z</time>
      </trkpt>
      <trkpt lat="45.30212" lon="4.69923">
        <ele>673.20001220703</ele>
        <time>2022-01-08T13:10:29Z</time>
      </trkpt>
      <trkpt lat="45.30204" lon="4.69933">
        <ele>675.40002441406</ele>
        <time>2022-01-08T13:10:38Z</time>
      </trkpt>
      <trkpt lat="45.30203" lon="4.69936">
        <ele>675.59997558594</ele>
        <time>2022-01-08T13:10:40Z</time>
      </trkpt>
      <trkpt lat="45.30196" lon="4.69949">
        <ele>677</ele>
        <time>2022-01-08T13:10:48Z</time>
      </trkpt>
      <trkpt lat="45.30192" lon="4.69954">
        <ele>677.40002441406</ele>
        <time>2022-01-08T13:10:52Z</time>
      </trkpt>
      <trkpt lat="45.30179" lon="4.69956">
        <ele>678.40002441406</ele>
        <time>2022-01-08T13:11:02Z</time>
      </trkpt>
      <trkpt lat="45.30171" lon="4.69963">
        <ele>679.20001220703</ele>
        <time>2022-01-08T13:11:08Z</time>
      </trkpt>
      <trkpt lat="45.30164" lon="4.69971">
        <ele>680.20001220703</ele>
        <time>2022-01-08T13:11:15Z</time>
      </trkpt>
      <trkpt lat="45.30155" lon="4.69978">
        <ele>681.20001220703</ele>
        <time>2022-01-08T13:11:23Z</time>
      </trkpt>
      <trkpt lat="45.30154" lon="4.6998">
        <ele>681.40002441406</ele>
        <time>2022-01-08T13:11:24Z</time>
      </trkpt>
      <trkpt lat="45.30147" lon="4.69987">
        <ele>682.40002441406</ele>
        <time>2022-01-08T13:11:32Z</time>
      </trkpt>
      <trkpt lat="45.30144" lon="4.69988">
        <ele>683.20001220703</ele>
        <time>2022-01-08T13:11:36Z</time>
      </trkpt>
      <trkpt lat="45.30139" lon="4.69992">
        <ele>684.59997558594</ele>
        <time>2022-01-08T13:11:42Z</time>
      </trkpt>
      <trkpt lat="45.30135" lon="4.69996">
        <ele>685.79998779297</ele>
        <time>2022-01-08T13:11:47Z</time>
      </trkpt>
      <trkpt lat="45.30125" lon="4.70005">
        <ele>688.20001220703</ele>
        <time>2022-01-08T13:11:59Z</time>
      </trkpt>
      <trkpt lat="45.30124" lon="4.70005">
        <ele>688.40002441406</ele>
        <time>2022-01-08T13:12:00Z</time>
      </trkpt>
      <trkpt lat="45.30119" lon="4.70006">
        <ele>689.20001220703</ele>
        <time>2022-01-08T13:12:04Z</time>
      </trkpt>
      <trkpt lat="45.30109" lon="4.70012">
        <ele>690.59997558594</ele>
        <time>2022-01-08T13:12:11Z</time>
      </trkpt>
      <trkpt lat="45.30107" lon="4.70013">
        <ele>690.79998779297</ele>
        <time>2022-01-08T13:12:13Z</time>
      </trkpt>
      <trkpt lat="45.301" lon="4.7002">
        <ele>691.40002441406</ele>
        <time>2022-01-08T13:12:20Z</time>
      </trkpt>
      <trkpt lat="45.30078" lon="4.70027">
        <ele>691.79998779297</ele>
        <time>2022-01-08T13:12:31Z</time>
      </trkpt>
      <trkpt lat="45.30072" lon="4.70031">
        <ele>691.59997558594</ele>
        <time>2022-01-08T13:12:34Z</time>
      </trkpt>
      <trkpt lat="45.30061" lon="4.70036">
        <ele>691.59997558594</ele>
        <time>2022-01-08T13:12:45Z</time>
      </trkpt>
      <trkpt lat="45.30056" lon="4.70041">
        <ele>691.79998779297</ele>
        <time>2022-01-08T13:12:52Z</time>
      </trkpt>
      <trkpt lat="45.30047" lon="4.70044">
        <ele>692</ele>
        <time>2022-01-08T13:12:58Z</time>
      </trkpt>
      <trkpt lat="45.30036" lon="4.70046">
        <ele>692.40002441406</ele>
        <time>2022-01-08T13:13:06Z</time>
      </trkpt>
      <trkpt lat="45.30025" lon="4.70031">
        <ele>693.40002441406</ele>
        <time>2022-01-08T13:13:15Z</time>
      </trkpt>
      <trkpt lat="45.30024" lon="4.7003">
        <ele>693.59997558594</ele>
        <time>2022-01-08T13:13:16Z</time>
      </trkpt>
      <trkpt lat="45.30023" lon="4.70016">
        <ele>696.79998779297</ele>
        <time>2022-01-08T13:13:26Z</time>
      </trkpt>
      <trkpt lat="45.30023" lon="4.70013">
        <ele>697.59997558594</ele>
        <time>2022-01-08T13:13:28Z</time>
      </trkpt>
      <trkpt lat="45.30024" lon="4.70003">
        <ele>700.59997558594</ele>
        <time>2022-01-08T13:13:37Z</time>
      </trkpt>
      <trkpt lat="45.30025" lon="4.6999">
        <ele>703.79998779297</ele>
        <time>2022-01-08T13:13:48Z</time>
      </trkpt>
      <trkpt lat="45.30026" lon="4.69988">
        <ele>704.59997558594</ele>
        <time>2022-01-08T13:13:50Z</time>
      </trkpt>
      <trkpt lat="45.30026" lon="4.69986">
        <ele>705</ele>
        <time>2022-01-08T13:13:51Z</time>
      </trkpt>
      <trkpt lat="45.30024" lon="4.69972">
        <ele>707</ele>
        <time>2022-01-08T13:14:00Z</time>
      </trkpt>
      <trkpt lat="45.30022" lon="4.69952">
        <ele>708.40002441406</ele>
        <time>2022-01-08T13:14:12Z</time>
      </trkpt>
      <trkpt lat="45.30022" lon="4.69949">
        <ele>708.59997558594</ele>
        <time>2022-01-08T13:14:15Z</time>
      </trkpt>
      <trkpt lat="45.30034" lon="4.69939">
        <ele>709.20001220703</ele>
        <time>2022-01-08T13:14:28Z</time>
      </trkpt>
      <trkpt lat="45.30034" lon="4.69929">
        <ele>709.20001220703</ele>
        <time>2022-01-08T13:14:35Z</time>
      </trkpt>
      <trkpt lat="45.30026" lon="4.6993">
        <ele>708.79998779297</ele>
        <time>2022-01-08T13:14:47Z</time>
      </trkpt>
      <trkpt lat="45.30022" lon="4.69954">
        <ele>709.20001220703</ele>
        <time>2022-01-08T13:15:02Z</time>
      </trkpt>
      <trkpt lat="45.3002" lon="4.69959">
        <ele>709.20001220703</ele>
        <time>2022-01-08T13:15:05Z</time>
      </trkpt>
      <trkpt lat="45.30003" lon="4.69973">
        <ele>706.79998779297</ele>
        <time>2022-01-08T13:15:23Z</time>
      </trkpt>
      <trkpt lat="45.30001" lon="4.69978">
        <ele>706.20001220703</ele>
        <time>2022-01-08T13:15:27Z</time>
      </trkpt>
      <trkpt lat="45.30001" lon="4.69995">
        <ele>703.20001220703</ele>
        <time>2022-01-08T13:15:39Z</time>
      </trkpt>
      <trkpt lat="45.30001" lon="4.70001">
        <ele>702.40002441406</ele>
        <time>2022-01-08T13:15:44Z</time>
      </trkpt>
      <trkpt lat="45.29999" lon="4.70016">
        <ele>699</ele>
        <time>2022-01-08T13:15:57Z</time>
      </trkpt>
      <trkpt lat="45.29999" lon="4.7002">
        <ele>697.79998779297</ele>
        <time>2022-01-08T13:16:00Z</time>
      </trkpt>
      <trkpt lat="45.29991" lon="4.70025">
        <ele>696.20001220703</ele>
        <time>2022-01-08T13:16:07Z</time>
      </trkpt>
      <trkpt lat="45.29983" lon="4.70023">
        <ele>694.79998779297</ele>
        <time>2022-01-08T13:16:14Z</time>
      </trkpt>
      <trkpt lat="45.29971" lon="4.70017">
        <ele>694</ele>
        <time>2022-01-08T13:16:23Z</time>
      </trkpt>
      <trkpt lat="45.29955" lon="4.70006">
        <ele>693</ele>
        <time>2022-01-08T13:16:36Z</time>
      </trkpt>
      <trkpt lat="45.29952" lon="4.70006">
        <ele>692.59997558594</ele>
        <time>2022-01-08T13:16:38Z</time>
      </trkpt>
      <trkpt lat="45.29947" lon="4.70003">
        <ele>692.20001220703</ele>
        <time>2022-01-08T13:16:42Z</time>
      </trkpt>
      <trkpt lat="45.29936" lon="4.69997">
        <ele>691.20001220703</ele>
        <time>2022-01-08T13:16:48Z</time>
      </trkpt>
      <trkpt lat="45.29934" lon="4.69995">
        <ele>691.20001220703</ele>
        <time>2022-01-08T13:16:49Z</time>
      </trkpt>
      <trkpt lat="45.29928" lon="4.69996">
        <ele>690.20001220703</ele>
        <time>2022-01-08T13:16:54Z</time>
      </trkpt>
      <trkpt lat="45.29916" lon="4.69995">
        <ele>688.59997558594</ele>
        <time>2022-01-08T13:17:04Z</time>
      </trkpt>
      <trkpt lat="45.29908" lon="4.69993">
        <ele>687.59997558594</ele>
        <time>2022-01-08T13:17:11Z</time>
      </trkpt>
      <trkpt lat="45.29901" lon="4.69988">
        <ele>687</ele>
        <time>2022-01-08T13:17:17Z</time>
      </trkpt>
      <trkpt lat="45.2989" lon="4.69983">
        <ele>686</ele>
        <time>2022-01-08T13:17:28Z</time>
      </trkpt>
      <trkpt lat="45.29877" lon="4.69995">
        <ele>684</ele>
        <time>2022-01-08T13:17:42Z</time>
      </trkpt>
      <trkpt lat="45.29858" lon="4.70009">
        <ele>681.79998779297</ele>
        <time>2022-01-08T13:17:55Z</time>
      </trkpt>
      <trkpt lat="45.29846" lon="4.70022">
        <ele>679.59997558594</ele>
        <time>2022-01-08T13:18:08Z</time>
      </trkpt>
      <trkpt lat="45.29844" lon="4.70024">
        <ele>679.40002441406</ele>
        <time>2022-01-08T13:18:10Z</time>
      </trkpt>
      <trkpt lat="45.29842" lon="4.70034">
        <ele>677.59997558594</ele>
        <time>2022-01-08T13:18:18Z</time>
      </trkpt>
      <trkpt lat="45.29842" lon="4.70042">
        <ele>676.20001220703</ele>
        <time>2022-01-08T13:18:24Z</time>
      </trkpt>
      <trkpt lat="45.2984" lon="4.70048">
        <ele>675.40002441406</ele>
        <time>2022-01-08T13:18:29Z</time>
      </trkpt>
      <trkpt lat="45.2984" lon="4.70054">
        <ele>674.40002441406</ele>
        <time>2022-01-08T13:18:33Z</time>
      </trkpt>
      <trkpt lat="45.29836" lon="4.70066">
        <ele>672.59997558594</ele>
        <time>2022-01-08T13:18:39Z</time>
      </trkpt>
      <trkpt lat="45.29837" lon="4.70085">
        <ele>670.79998779297</ele>
        <time>2022-01-08T13:18:48Z</time>
      </trkpt>
      <trkpt lat="45.29839" lon="4.70098">
        <ele>669.59997558594</ele>
        <time>2022-01-08T13:18:55Z</time>
      </trkpt>
      <trkpt lat="45.29843" lon="4.70115">
        <ele>667.40002441406</ele>
        <time>2022-01-08T13:19:08Z</time>
      </trkpt>
      <trkpt lat="45.29849" lon="4.70133">
        <ele>665.40002441406</ele>
        <time>2022-01-08T13:19:18Z</time>
      </trkpt>
      <trkpt lat="45.29857" lon="4.7015">
        <ele>664.40002441406</ele>
        <time>2022-01-08T13:19:29Z</time>
      </trkpt>
      <trkpt lat="45.29859" lon="4.70156">
        <ele>663.79998779297</ele>
        <time>2022-01-08T13:19:32Z</time>
      </trkpt>
      <trkpt lat="45.29868" lon="4.70174">
        <ele>662.20001220703</ele>
        <time>2022-01-08T13:19:44Z</time>
      </trkpt>
      <trkpt lat="45.29869" lon="4.70176">
        <ele>662.20001220703</ele>
        <time>2022-01-08T13:19:45Z</time>
      </trkpt>
      <trkpt lat="45.29877" lon="4.70184">
        <ele>661.20001220703</ele>
        <time>2022-01-08T13:19:52Z</time>
      </trkpt>
      <trkpt lat="45.29884" lon="4.70188">
        <ele>660.59997558594</ele>
        <time>2022-01-08T13:19:56Z</time>
      </trkpt>
      <trkpt lat="45.29892" lon="4.70206">
        <ele>659.20001220703</ele>
        <time>2022-01-08T13:20:06Z</time>
      </trkpt>
      <trkpt lat="45.29894" lon="4.70215">
        <ele>658</ele>
        <time>2022-01-08T13:20:11Z</time>
      </trkpt>
      <trkpt lat="45.29901" lon="4.70231">
        <ele>655.20001220703</ele>
        <time>2022-01-08T13:20:23Z</time>
      </trkpt>
      <trkpt lat="45.29899" lon="4.70246">
        <ele>653.40002441406</ele>
        <time>2022-01-08T13:20:32Z</time>
      </trkpt>
      <trkpt lat="45.29882" lon="4.70246">
        <ele>652</ele>
        <time>2022-01-08T13:20:45Z</time>
      </trkpt>
      <trkpt lat="45.29867" lon="4.70245">
        <ele>651.79998779297</ele>
        <time>2022-01-08T13:20:53Z</time>
      </trkpt>
      <trkpt lat="45.29865" lon="4.70246">
        <ele>651.79998779297</ele>
        <time>2022-01-08T13:20:55Z</time>
      </trkpt>
      <trkpt lat="45.29861" lon="4.70243">
        <ele>651.79998779297</ele>
        <time>2022-01-08T13:20:58Z</time>
      </trkpt>
      <trkpt lat="45.29855" lon="4.70243">
        <ele>652</ele>
        <time>2022-01-08T13:21:02Z</time>
      </trkpt>
      <trkpt lat="45.29848" lon="4.70238">
        <ele>652</ele>
        <time>2022-01-08T13:21:07Z</time>
      </trkpt>
      <trkpt lat="45.29843" lon="4.70236">
        <ele>652</ele>
        <time>2022-01-08T13:21:11Z</time>
      </trkpt>
      <trkpt lat="45.29828" lon="4.70234">
        <ele>652.79998779297</ele>
        <time>2022-01-08T13:21:22Z</time>
      </trkpt>
      <trkpt lat="45.29814" lon="4.70234">
        <ele>653.20001220703</ele>
        <time>2022-01-08T13:21:30Z</time>
      </trkpt>
      <trkpt lat="45.2981" lon="4.70236">
        <ele>653.20001220703</ele>
        <time>2022-01-08T13:21:32Z</time>
      </trkpt>
      <trkpt lat="45.29809" lon="4.70237">
        <ele>653.40002441406</ele>
        <time>2022-01-08T13:21:33Z</time>
      </trkpt>
      <trkpt lat="45.29796" lon="4.70235">
        <ele>653.40002441406</ele>
        <time>2022-01-08T13:21:42Z</time>
      </trkpt>
      <trkpt lat="45.29789" lon="4.70232">
        <ele>653.40002441406</ele>
        <time>2022-01-08T13:21:47Z</time>
      </trkpt>
      <trkpt lat="45.29785" lon="4.7023">
        <ele>653.20001220703</ele>
        <time>2022-01-08T13:21:51Z</time>
      </trkpt>
      <trkpt lat="45.29777" lon="4.70228">
        <ele>653</ele>
        <time>2022-01-08T13:21:57Z</time>
      </trkpt>
      <trkpt lat="45.29771" lon="4.70226">
        <ele>652.79998779297</ele>
        <time>2022-01-08T13:22:00Z</time>
      </trkpt>
      <trkpt lat="45.29764" lon="4.70228">
        <ele>652.59997558594</ele>
        <time>2022-01-08T13:22:04Z</time>
      </trkpt>
      <trkpt lat="45.29749" lon="4.70223">
        <ele>652.40002441406</ele>
        <time>2022-01-08T13:22:13Z</time>
      </trkpt>
      <trkpt lat="45.29725" lon="4.70226">
        <ele>652.40002441406</ele>
        <time>2022-01-08T13:22:31Z</time>
      </trkpt>
      <trkpt lat="45.29711" lon="4.70227">
        <ele>652.40002441406</ele>
        <time>2022-01-08T13:22:39Z</time>
      </trkpt>
      <trkpt lat="45.29697" lon="4.70218">
        <ele>652</ele>
        <time>2022-01-08T13:22:49Z</time>
      </trkpt>
      <trkpt lat="45.29679" lon="4.70212">
        <ele>651.79998779297</ele>
        <time>2022-01-08T13:23:00Z</time>
      </trkpt>
      <trkpt lat="45.29669" lon="4.70211">
        <ele>651.59997558594</ele>
        <time>2022-01-08T13:23:07Z</time>
      </trkpt>
      <trkpt lat="45.29653" lon="4.70214">
        <ele>651.40002441406</ele>
        <time>2022-01-08T13:23:17Z</time>
      </trkpt>
      <trkpt lat="45.29641" lon="4.70211">
        <ele>651.40002441406</ele>
        <time>2022-01-08T13:23:28Z</time>
      </trkpt>
      <trkpt lat="45.29629" lon="4.70208">
        <ele>651.59997558594</ele>
        <time>2022-01-08T13:23:37Z</time>
      </trkpt>
      <trkpt lat="45.29616" lon="4.70208">
        <ele>652</ele>
        <time>2022-01-08T13:23:46Z</time>
      </trkpt>
      <trkpt lat="45.29575" lon="4.70204">
        <ele>651.59997558594</ele>
        <time>2022-01-08T13:24:09Z</time>
      </trkpt>
      <trkpt lat="45.2956" lon="4.70203">
        <ele>650.79998779297</ele>
        <time>2022-01-08T13:24:18Z</time>
      </trkpt>
      <trkpt lat="45.29547" lon="4.70205">
        <ele>649.59997558594</ele>
        <time>2022-01-08T13:24:29Z</time>
      </trkpt>
      <trkpt lat="45.2953" lon="4.70211">
        <ele>648.79998779297</ele>
        <time>2022-01-08T13:24:48Z</time>
      </trkpt>
      <trkpt lat="45.29521" lon="4.70217">
        <ele>648.59997558594</ele>
        <time>2022-01-08T13:24:54Z</time>
      </trkpt>
      <trkpt lat="45.2952" lon="4.70224">
        <ele>648.40002441406</ele>
        <time>2022-01-08T13:24:59Z</time>
      </trkpt>
      <trkpt lat="45.29519" lon="4.70264">
        <ele>646.79998779297</ele>
        <time>2022-01-08T13:25:21Z</time>
      </trkpt>
      <trkpt lat="45.2952" lon="4.70287">
        <ele>645.59997558594</ele>
        <time>2022-01-08T13:25:31Z</time>
      </trkpt>
      <trkpt lat="45.29519" lon="4.7029">
        <ele>645.20001220703</ele>
        <time>2022-01-08T13:25:33Z</time>
      </trkpt>
      <trkpt lat="45.2952" lon="4.70311">
        <ele>644</ele>
        <time>2022-01-08T13:25:44Z</time>
      </trkpt>
      <trkpt lat="45.29507" lon="4.70345">
        <ele>642.40002441406</ele>
        <time>2022-01-08T13:26:01Z</time>
      </trkpt>
      <trkpt lat="45.29506" lon="4.70347">
        <ele>642.40002441406</ele>
        <time>2022-01-08T13:26:02Z</time>
      </trkpt>
      <trkpt lat="45.29499" lon="4.70365">
        <ele>641.79998779297</ele>
        <time>2022-01-08T13:26:11Z</time>
      </trkpt>
      <trkpt lat="45.29497" lon="4.70377">
        <ele>641</ele>
        <time>2022-01-08T13:26:18Z</time>
      </trkpt>
      <trkpt lat="45.29498" lon="4.70383">
        <ele>640.79998779297</ele>
        <time>2022-01-08T13:26:21Z</time>
      </trkpt>
      <trkpt lat="45.29495" lon="4.70397">
        <ele>640.40002441406</ele>
        <time>2022-01-08T13:26:29Z</time>
      </trkpt>
      <trkpt lat="45.29495" lon="4.70398">
        <ele>640.40002441406</ele>
        <time>2022-01-08T13:26:30Z</time>
      </trkpt>
      <trkpt lat="45.29491" lon="4.70417">
        <ele>640.20001220703</ele>
        <time>2022-01-08T13:26:41Z</time>
      </trkpt>
      <trkpt lat="45.2949" lon="4.7043">
        <ele>640</ele>
        <time>2022-01-08T13:26:47Z</time>
      </trkpt>
      <trkpt lat="45.2949" lon="4.70453">
        <ele>640</ele>
        <time>2022-01-08T13:27:00Z</time>
      </trkpt>
      <trkpt lat="45.29485" lon="4.70479">
        <ele>639.40002441406</ele>
        <time>2022-01-08T13:27:13Z</time>
      </trkpt>
      <trkpt lat="45.29479" lon="4.70498">
        <ele>638.40002441406</ele>
        <time>2022-01-08T13:27:26Z</time>
      </trkpt>
      <trkpt lat="45.29468" lon="4.70526">
        <ele>635.79998779297</ele>
        <time>2022-01-08T13:27:43Z</time>
      </trkpt>
      <trkpt lat="45.29465" lon="4.70534">
        <ele>634.59997558594</ele>
        <time>2022-01-08T13:27:50Z</time>
      </trkpt>
      <trkpt lat="45.29449" lon="4.70551">
        <ele>632.40002441406</ele>
        <time>2022-01-08T13:28:02Z</time>
      </trkpt>
      <trkpt lat="45.29438" lon="4.70553">
        <ele>630.79998779297</ele>
        <time>2022-01-08T13:28:13Z</time>
      </trkpt>
      <trkpt lat="45.29424" lon="4.70553">
        <ele>629.59997558594</ele>
        <time>2022-01-08T13:28:23Z</time>
      </trkpt>
      <trkpt lat="45.29413" lon="4.70548">
        <ele>626.79998779297</ele>
        <time>2022-01-08T13:28:35Z</time>
      </trkpt>
      <trkpt lat="45.29404" lon="4.70545">
        <ele>625.40002441406</ele>
        <time>2022-01-08T13:28:43Z</time>
      </trkpt>
      <trkpt lat="45.29386" lon="4.70541">
        <ele>622.79998779297</ele>
        <time>2022-01-08T13:28:57Z</time>
      </trkpt>
      <trkpt lat="45.29386" lon="4.70546">
        <ele>622</ele>
        <time>2022-01-08T13:29:01Z</time>
      </trkpt>
      <trkpt lat="45.29368" lon="4.70527">
        <ele>612.8</ele>
      </trkpt>
      <trkpt lat="45.29338" lon="4.70533">
        <ele>611.8</ele>
        <time>2022-01-08T13:29:15Z</time>
      </trkpt>
      <trkpt lat="45.29322" lon="4.70551">
        <ele>611.6</ele>
      </trkpt>
      <trkpt lat="45.29314" lon="4.7058">
        <ele>610.2</ele>
      </trkpt>
      <trkpt lat="45.29312" lon="4.70617">
        <ele>610.1</ele>
        <time>2022-01-08T13:30:53Z</time>
      </trkpt>
      <trkpt lat="45.29316" lon="4.70649">
        <ele>609.8</ele>
        <time>2022-01-08T13:31:13Z</time>
      </trkpt>
      <trkpt lat="45.29314" lon="4.70678">
        <ele>608.1</ele>
        <time>2022-01-08T13:31:15Z</time>
      </trkpt>
      <trkpt lat="45.29311" lon="4.7071">
        <ele>605.2</ele>
        <time>2022-01-08T13:31:24Z</time>
      </trkpt>
      <trkpt lat="45.29305" lon="4.70739">
        <ele>602.2</ele>
      </trkpt>
      <trkpt lat="45.29298" lon="4.7076">
        <ele>599.5</ele>
        <time>2022-01-08T13:31:25Z</time>
      </trkpt>
      <trkpt lat="45.29283" lon="4.7076">
        <ele>598.8</ele>
        <time>2022-01-08T13:31:30Z</time>
      </trkpt>
      <trkpt lat="45.2927" lon="4.70755">
        <ele>595.7</ele>
        <time>2022-01-08T13:31:46Z</time>
      </trkpt>
      <trkpt lat="45.29257" lon="4.70741">
        <ele>592.3</ele>
      </trkpt>
      <trkpt lat="45.29242" lon="4.70718">
        <ele>589.2</ele>
        <time>2022-01-08T13:31:54Z</time>
      </trkpt>
      <trkpt lat="45.2924" lon="4.70699">
        <ele>591.2</ele>
        <time>2022-01-08T13:31:56Z</time>
      </trkpt>
      <trkpt lat="45.29227" lon="4.70683">
        <ele>586.5</ele>
        <time>2022-01-08T13:32:07Z</time>
      </trkpt>
      <trkpt lat="45.29221" lon="4.7066">
        <ele>586.5</ele>
      </trkpt>
      <trkpt lat="45.29206" lon="4.70636">
        <ele>582.4</ele>
        <time>2022-01-08T13:32:43Z</time>
      </trkpt>
      <trkpt lat="45.29201" lon="4.70599">
        <ele>582.6</ele>
      </trkpt>
      <trkpt lat="45.2919" lon="4.7058">
        <ele>578.1</ele>
        <time>2022-01-08T13:32:51Z</time>
      </trkpt>
      <trkpt lat="45.29179" lon="4.70559">
        <ele>575.2</ele>
        <time>2022-01-08T13:33:02Z</time>
      </trkpt>
      <trkpt lat="45.29171" lon="4.70538">
        <ele>574.1</ele>
        <time>2022-01-08T13:33:13Z</time>
      </trkpt>
      <trkpt lat="45.29166" lon="4.70522">
        <ele>573.6</ele>
        <time>2022-01-08T13:33:16Z</time>
      </trkpt>
      <trkpt lat="45.29156" lon="4.70509">
        <ele>572.4</ele>
        <time>2022-01-08T13:33:22Z</time>
      </trkpt>
      <trkpt lat="45.29145" lon="4.70488">
        <ele>571.2</ele>
        <time>2022-01-08T13:33:24Z</time>
      </trkpt>
      <trkpt lat="45.29128" lon="4.70464">
        <ele>568.5</ele>
        <time>2022-01-08T13:33:27Z</time>
      </trkpt>
      <trkpt lat="45.29114" lon="4.70438">
        <ele>564.7</ele>
        <time>2022-01-08T13:33:36Z</time>
      </trkpt>
      <trkpt lat="45.29106" lon="4.70419">
        <ele>563.9</ele>
        <time>2022-01-08T13:33:50Z</time>
      </trkpt>
      <trkpt lat="45.29097" lon="4.70401">
        <ele>562.6</ele>
        <time>2022-01-08T13:34:00Z</time>
      </trkpt>
      <trkpt lat="45.29082" lon="4.70379">
        <ele>559.5</ele>
      </trkpt>
      <trkpt lat="45.29067" lon="4.7035">
        <ele>556.7</ele>
      </trkpt>
      <trkpt lat="45.29056" lon="4.70329">
        <ele>554.1</ele>
      </trkpt>
      <trkpt lat="45.2905" lon="4.70308">
        <ele>552.1</ele>
      </trkpt>
      <trkpt lat="45.29052" lon="4.70271">
        <ele>550.5</ele>
      </trkpt>
      <trkpt lat="45.29054" lon="4.70245">
        <ele>549.2</ele>
      </trkpt>
      <trkpt lat="45.2906" lon="4.70221">
        <ele>549.2</ele>
      </trkpt>
      <trkpt lat="45.29045" lon="4.70208">
        <ele>545.7</ele>
      </trkpt>
      <trkpt lat="45.29037" lon="4.70237">
        <ele>544.7</ele>
      </trkpt>
      <trkpt lat="45.29026" lon="4.70266">
        <ele>542.8</ele>
      </trkpt>
      <trkpt lat="45.29021" lon="4.70292">
        <ele>541.9</ele>
      </trkpt>
      <trkpt lat="45.29017" lon="4.70329">
        <ele>539.6</ele>
      </trkpt>
      <trkpt lat="45.29019" lon="4.70358">
        <ele>537.4</ele>
      </trkpt>
      <trkpt lat="45.29019" lon="4.70393">
        <ele>534.8</ele>
      </trkpt>
      <trkpt lat="45.29024" lon="4.70416">
        <ele>534.3</ele>
      </trkpt>
      <trkpt lat="45.29026" lon="4.70443">
        <ele>533.7</ele>
      </trkpt>
      <trkpt lat="45.29026" lon="4.70472">
        <ele>532.7</ele>
      </trkpt>
      <trkpt lat="45.29026" lon="4.70509">
        <ele>530</ele>
      </trkpt>
      <trkpt lat="45.29034" lon="4.70546">
        <ele>526.5</ele>
      </trkpt>
      <trkpt lat="45.29037" lon="4.70572">
        <ele>524.1</ele>
      </trkpt>
      <trkpt lat="45.29045" lon="4.70601">
        <ele>522.1</ele>
      </trkpt>
      <trkpt lat="45.2905" lon="4.70617">
        <ele>521</ele>
      </trkpt>
      <trkpt lat="45.29052" lon="4.7062">
        <ele>521</ele>
      </trkpt>
      <trkpt lat="45.2906" lon="4.70662">
        <ele>516</ele>
      </trkpt>
      <trkpt lat="45.29073" lon="4.70683">
        <ele>516.2</ele>
      </trkpt>
      <trkpt lat="45.2908" lon="4.70715">
        <ele>512.3</ele>
      </trkpt>
      <trkpt lat="45.29088" lon="4.70744">
        <ele>509.8</ele>
      </trkpt>
      <trkpt lat="45.29102" lon="4.70768">
        <ele>512.2</ele>
      </trkpt>
      <trkpt lat="45.2911" lon="4.70797">
        <ele>511.4</ele>
      </trkpt>
      <trkpt lat="45.29108" lon="4.70821">
        <ele>508.6</ele>
      </trkpt>
      <trkpt lat="45.2911" lon="4.70839">
        <ele>507.3</ele>
      </trkpt>
      <trkpt lat="45.29119" lon="4.70858">
        <ele>506.3</ele>
      </trkpt>
      <trkpt lat="45.2913" lon="4.70871">
        <ele>507.8</ele>
      </trkpt>
      <trkpt lat="45.29125" lon="4.70897">
        <ele>502.2</ele>
      </trkpt>
      <trkpt lat="45.2914" lon="4.70926">
        <ele>502.8</ele>
      </trkpt>
      <trkpt lat="45.29156" lon="4.70947">
        <ele>505.9</ele>
      </trkpt>
      <trkpt lat="45.29162" lon="4.70971">
        <ele>505.4</ele>
      </trkpt>
      <trkpt lat="45.29167" lon="4.70998">
        <ele>506.4</ele>
      </trkpt>
      <trkpt lat="45.29169" lon="4.71024">
        <ele>505.8</ele>
      </trkpt>
      <trkpt lat="45.29188" lon="4.7104">
        <ele>508.4</ele>
      </trkpt>
      <trkpt lat="45.29227" lon="4.71045">
        <ele>512.4</ele>
      </trkpt>
      <trkpt lat="45.29262" lon="4.71053">
        <ele>510.3</ele>
      </trkpt>
      <trkpt lat="45.29292" lon="4.71043">
        <ele>512.4</ele>
      </trkpt>
      <trkpt lat="45.29327" lon="4.71037">
        <ele>509</ele>
      </trkpt>
      <trkpt lat="45.29361" lon="4.71024">
        <ele>505.9</ele>
      </trkpt>
      <trkpt lat="45.29385" lon="4.71008">
        <ele>505</ele>
      </trkpt>
      <trkpt lat="45.29411" lon="4.71">
        <ele>504.4</ele>
      </trkpt>
      <trkpt lat="45.29444" lon="4.71">
        <ele>502.9</ele>
        <time>2022-01-08T13:34:04Z</time>
      </trkpt>
      <trkpt lat="45.2947" lon="4.70998">
        <ele>505.1</ele>
        <time>2022-01-08T13:34:07Z</time>
      </trkpt>
      <trkpt lat="45.29483" lon="4.71016">
        <ele>504.8</ele>
        <time>2022-01-08T13:34:14Z</time>
      </trkpt>
      <trkpt lat="45.29489" lon="4.71045">
        <ele>504.3</ele>
        <time>2022-01-08T13:34:18Z</time>
      </trkpt>
      <trkpt lat="45.29491" lon="4.71074">
        <ele>503.7</ele>
        <time>2022-01-08T13:34:25Z</time>
      </trkpt>
      <trkpt lat="45.29498" lon="4.71098">
        <ele>504.9</ele>
        <time>2022-01-08T13:34:31Z</time>
      </trkpt>
      <trkpt lat="45.29508" lon="4.71122">
        <ele>504.4</ele>
        <time>2022-01-08T13:34:40Z</time>
      </trkpt>
      <trkpt lat="45.29521" lon="4.71135">
        <ele>503.9</ele>
        <time>2022-01-08T13:34:43Z</time>
      </trkpt>
      <trkpt lat="45.29541" lon="4.71146">
        <ele>502.8</ele>
        <time>2022-01-08T13:34:55Z</time>
      </trkpt>
      <trkpt lat="45.29565" lon="4.71138">
        <ele>503.1</ele>
      </trkpt>
      <trkpt lat="45.29593" lon="4.71138">
        <ele>503.1</ele>
      </trkpt>
      <trkpt lat="45.29615" lon="4.7114">
        <ele>503.1</ele>
      </trkpt>
      <trkpt lat="45.29638" lon="4.71135">
        <ele>505.3</ele>
      </trkpt>
      <trkpt lat="45.29656" lon="4.71127">
        <ele>504.7</ele>
      </trkpt>
      <trkpt lat="45.29677" lon="4.71114">
        <ele>503.5</ele>
      </trkpt>
      <trkpt lat="45.29705" lon="4.7108">
        <ele>505.6</ele>
      </trkpt>
      <trkpt lat="45.29719" lon="4.71072">
        <ele>508.4</ele>
      </trkpt>
      <trkpt lat="45.29738" lon="4.71058">
        <ele>505.9</ele>
      </trkpt>
      <trkpt lat="45.29749" lon="4.71035">
        <ele>507.8</ele>
      </trkpt>
      <trkpt lat="45.2976" lon="4.71016">
        <ele>507.2</ele>
      </trkpt>
      <trkpt lat="45.29768" lon="4.71003">
        <ele>507</ele>
      </trkpt>
      <trkpt lat="45.29783" lon="4.70982">
        <ele>508.3</ele>
      </trkpt>
      <trkpt lat="45.29794" lon="4.70969">
        <ele>510.8</ele>
      </trkpt>
      <trkpt lat="45.2981" lon="4.70955">
        <ele>512.5</ele>
      </trkpt>
      <trkpt lat="45.29825" lon="4.70942">
        <ele>516.3</ele>
      </trkpt>
      <trkpt lat="45.29842" lon="4.70929">
        <ele>522.3</ele>
      </trkpt>
      <trkpt lat="45.29853" lon="4.70929">
        <ele>526.1</ele>
      </trkpt>
      <trkpt lat="45.29853" lon="4.70905">
        <ele>529.7</ele>
      </trkpt>
      <trkpt lat="45.29844" lon="4.70887">
        <ele>530.3</ele>
      </trkpt>
      <trkpt lat="45.29831" lon="4.70871">
        <ele>533.1</ele>
      </trkpt>
      <trkpt lat="45.29812" lon="4.70863">
        <ele>539.7</ele>
      </trkpt>
      <trkpt lat="45.29788" lon="4.70884">
        <ele>539.9</ele>
      </trkpt>
      <trkpt lat="45.2976" lon="4.70892">
        <ele>547.3</ele>
      </trkpt>
      <trkpt lat="45.2974" lon="4.70889">
        <ele>551.9</ele>
      </trkpt>
      <trkpt lat="45.29723" lon="4.70884">
        <ele>553.6</ele>
      </trkpt>
      <trkpt lat="45.2971" lon="4.70874">
        <ele>555</ele>
      </trkpt>
      <trkpt lat="45.29721" lon="4.70858">
        <ele>561.8</ele>
      </trkpt>
      <trkpt lat="45.29731" lon="4.70858">
        <ele>562.3</ele>
      </trkpt>
      <trkpt lat="45.29734" lon="4.70852">
        <ele>563.8</ele>
      </trkpt>
      <trkpt lat="45.29732" lon="4.70826">
        <ele>571</ele>
      </trkpt>
      <trkpt lat="45.29751" lon="4.70807">
        <ele>575.3</ele>
      </trkpt>
      <trkpt lat="45.29764" lon="4.70778">
        <ele>581.8</ele>
      </trkpt>
      <trkpt lat="45.29783" lon="4.70755">
        <ele>584.3</ele>
      </trkpt>
      <trkpt lat="45.29796" lon="4.70726">
        <ele>587.3</ele>
      </trkpt>
      <trkpt lat="45.29796" lon="4.70699">
        <ele>592.5</ele>
      </trkpt>
      <trkpt lat="45.29812" lon="4.70673">
        <ele>593.3</ele>
        <time>2022-01-08T13:35:11Z</time>
      </trkpt>
      <trkpt lat="45.29833" lon="4.70657">
        <ele>592.4</ele>
        <time>2022-01-08T13:35:22Z</time>
      </trkpt>
      <trkpt lat="45.29853" lon="4.70633">
        <ele>590.7</ele>
        <time>2022-01-08T13:35:29Z</time>
      </trkpt>
      <trkpt lat="45.29888" lon="4.70633">
        <ele>588.1</ele>
        <time>2022-01-08T13:35:34Z</time>
      </trkpt>
      <trkpt lat="45.29891" lon="4.7064">
        <ele>595.40002441406</ele>
        <time>2022-01-08T13:35:35Z</time>
      </trkpt>
      <trkpt lat="45.29913" lon="4.70652">
        <ele>593.59997558594</ele>
        <time>2022-01-08T13:35:45Z</time>
      </trkpt>
      <trkpt lat="45.29919" lon="4.70659">
        <ele>592.59997558594</ele>
        <time>2022-01-08T13:35:50Z</time>
      </trkpt>
      <trkpt lat="45.29926" lon="4.70672">
        <ele>591.59997558594</ele>
        <time>2022-01-08T13:35:57Z</time>
      </trkpt>
      <trkpt lat="45.29932" lon="4.70679">
        <ele>590.59997558594</ele>
        <time>2022-01-08T13:36:04Z</time>
      </trkpt>
      <trkpt lat="45.29947" lon="4.70675">
        <ele>589.20001220703</ele>
        <time>2022-01-08T13:36:15Z</time>
      </trkpt>
      <trkpt lat="45.29948" lon="4.70675">
        <ele>589</ele>
        <time>2022-01-08T13:36:16Z</time>
      </trkpt>
      <trkpt lat="45.29966" lon="4.70662">
        <ele>587</ele>
        <time>2022-01-08T13:36:27Z</time>
      </trkpt>
      <trkpt lat="45.29969" lon="4.70661">
        <ele>586.40002441406</ele>
        <time>2022-01-08T13:36:32Z</time>
      </trkpt>
      <trkpt lat="45.29981" lon="4.70652">
        <ele>584.20001220703</ele>
        <time>2022-01-08T13:36:47Z</time>
      </trkpt>
      <trkpt lat="45.29993" lon="4.70654">
        <ele>583.59997558594</ele>
        <time>2022-01-08T13:36:56Z</time>
      </trkpt>
      <trkpt lat="45.29998" lon="4.70661">
        <ele>583.20001220703</ele>
        <time>2022-01-08T13:37:01Z</time>
      </trkpt>
      <trkpt lat="45.30008" lon="4.70684">
        <ele>583</ele>
        <time>2022-01-08T13:37:15Z</time>
      </trkpt>
      <trkpt lat="45.3001" lon="4.70688">
        <ele>583.20001220703</ele>
        <time>2022-01-08T13:37:17Z</time>
      </trkpt>
      <trkpt lat="45.30019" lon="4.70704">
        <ele>584.20001220703</ele>
        <time>2022-01-08T13:37:32Z</time>
      </trkpt>
      <trkpt lat="45.30022" lon="4.70714">
        <ele>584.79998779297</ele>
        <time>2022-01-08T13:37:39Z</time>
      </trkpt>
      <trkpt lat="45.30026" lon="4.70719">
        <ele>585.20001220703</ele>
        <time>2022-01-08T13:37:44Z</time>
      </trkpt>
      <trkpt lat="45.30029" lon="4.70721">
        <ele>585.59997558594</ele>
        <time>2022-01-08T13:37:47Z</time>
      </trkpt>
      <trkpt lat="45.30045" lon="4.70731">
        <ele>587</ele>
        <time>2022-01-08T13:38:00Z</time>
      </trkpt>
      <trkpt lat="45.30054" lon="4.70732">
        <ele>587.20001220703</ele>
        <time>2022-01-08T13:38:07Z</time>
      </trkpt>
      <trkpt lat="45.30062" lon="4.70729">
        <ele>588.20001220703</ele>
        <time>2022-01-08T13:38:14Z</time>
      </trkpt>
      <trkpt lat="45.30063" lon="4.70729">
        <ele>588.59997558594</ele>
        <time>2022-01-08T13:38:16Z</time>
      </trkpt>
      <trkpt lat="45.30066" lon="4.7073">
        <ele>589.40002441406</ele>
        <time>2022-01-08T13:38:20Z</time>
      </trkpt>
      <trkpt lat="45.30077" lon="4.70732">
        <ele>591.59997558594</ele>
        <time>2022-01-08T13:38:31Z</time>
      </trkpt>
      <trkpt lat="45.30081" lon="4.70737">
        <ele>592.79998779297</ele>
        <time>2022-01-08T13:38:36Z</time>
      </trkpt>
      <trkpt lat="45.30091" lon="4.70741">
        <ele>595</ele>
        <time>2022-01-08T13:38:46Z</time>
      </trkpt>
      <trkpt lat="45.30104" lon="4.70744">
        <ele>596.59997558594</ele>
        <time>2022-01-08T13:38:56Z</time>
      </trkpt>
      <trkpt lat="45.30105" lon="4.70744">
        <ele>597</ele>
        <time>2022-01-08T13:38:57Z</time>
      </trkpt>
      <trkpt lat="45.30107" lon="4.70744">
        <ele>597.40002441406</ele>
        <time>2022-01-08T13:38:59Z</time>
      </trkpt>
      <trkpt lat="45.30113" lon="4.70746">
        <ele>598</ele>
        <time>2022-01-08T13:39:04Z</time>
      </trkpt>
      <trkpt lat="45.30121" lon="4.70752">
        <ele>599.59997558594</ele>
        <time>2022-01-08T13:39:10Z</time>
      </trkpt>
      <trkpt lat="45.30127" lon="4.7075">
        <ele>600.20001220703</ele>
        <time>2022-01-08T13:39:14Z</time>
      </trkpt>
      <trkpt lat="45.30133" lon="4.70754">
        <ele>601</ele>
        <time>2022-01-08T13:39:19Z</time>
      </trkpt>
      <trkpt lat="45.30136" lon="4.70757">
        <ele>601.40002441406</ele>
        <time>2022-01-08T13:39:23Z</time>
      </trkpt>
      <trkpt lat="45.30141" lon="4.70757">
        <ele>603.59997558594</ele>
        <time>2022-01-08T13:39:30Z</time>
      </trkpt>
      <trkpt lat="45.30153" lon="4.7076">
        <ele>605.79998779297</ele>
        <time>2022-01-08T13:39:42Z</time>
      </trkpt>
      <trkpt lat="45.30166" lon="4.70766">
        <ele>607.79998779297</ele>
        <time>2022-01-08T13:39:52Z</time>
      </trkpt>
      <trkpt lat="45.30173" lon="4.70771">
        <ele>608.20001220703</ele>
        <time>2022-01-08T13:39:57Z</time>
      </trkpt>
      <trkpt lat="45.30181" lon="4.70773">
        <ele>608.40002441406</ele>
        <time>2022-01-08T13:40:03Z</time>
      </trkpt>
      <trkpt lat="45.30184" lon="4.70774">
        <ele>608.40002441406</ele>
        <time>2022-01-08T13:40:05Z</time>
      </trkpt>
      <trkpt lat="45.30184" lon="4.70778">
        <ele>608.59997558594</ele>
        <time>2022-01-08T13:40:08Z</time>
      </trkpt>
      <trkpt lat="45.30203" lon="4.70779">
        <ele>608.59997558594</ele>
        <time>2022-01-08T13:40:17Z</time>
      </trkpt>
      <trkpt lat="45.30204" lon="4.70779">
        <ele>608.59997558594</ele>
        <time>2022-01-08T13:40:18Z</time>
      </trkpt>
      <trkpt lat="45.3022" lon="4.70782">
        <ele>608.79998779297</ele>
        <time>2022-01-08T13:40:27Z</time>
      </trkpt>
      <trkpt lat="45.30224" lon="4.70785">
        <ele>609.20001220703</ele>
        <time>2022-01-08T13:40:31Z</time>
      </trkpt>
      <trkpt lat="45.30236" lon="4.70786">
        <ele>609.59997558594</ele>
        <time>2022-01-08T13:40:39Z</time>
      </trkpt>
      <trkpt lat="45.30241" lon="4.70787">
        <ele>609.79998779297</ele>
        <time>2022-01-08T13:40:43Z</time>
      </trkpt>
      <trkpt lat="45.3025" lon="4.70792">
        <ele>610.20001220703</ele>
        <time>2022-01-08T13:40:52Z</time>
      </trkpt>
      <trkpt lat="45.30266" lon="4.70796">
        <ele>610.59997558594</ele>
        <time>2022-01-08T13:41:02Z</time>
      </trkpt>
      <trkpt lat="45.30279" lon="4.70799">
        <ele>610.40002441406</ele>
        <time>2022-01-08T13:41:09Z</time>
      </trkpt>
      <trkpt lat="45.30287" lon="4.708">
        <ele>610.20001220703</ele>
        <time>2022-01-08T13:41:13Z</time>
      </trkpt>
      <trkpt lat="45.30293" lon="4.70805">
        <ele>610.59997558594</ele>
        <time>2022-01-08T13:41:18Z</time>
      </trkpt>
      <trkpt lat="45.30307" lon="4.70801">
        <ele>611.40002441406</ele>
        <time>2022-01-08T13:41:30Z</time>
      </trkpt>
      <trkpt lat="45.3031" lon="4.70801">
        <ele>611.79998779297</ele>
        <time>2022-01-08T13:41:33Z</time>
      </trkpt>
      <trkpt lat="45.30321" lon="4.70799">
        <ele>612.40002441406</ele>
        <time>2022-01-08T13:41:42Z</time>
      </trkpt>
      <trkpt lat="45.30336" lon="4.70797">
        <ele>613.59997558594</ele>
        <time>2022-01-08T13:41:53Z</time>
      </trkpt>
      <trkpt lat="45.30341" lon="4.70796">
        <ele>613.79998779297</ele>
        <time>2022-01-08T13:41:57Z</time>
      </trkpt>
      <trkpt lat="45.30345" lon="4.70799">
        <ele>614.59997558594</ele>
        <time>2022-01-08T13:42:05Z</time>
      </trkpt>
      <trkpt lat="45.30348" lon="4.70798">
        <ele>614.79998779297</ele>
        <time>2022-01-08T13:42:09Z</time>
      </trkpt>
      <trkpt lat="45.30356" lon="4.70799">
        <ele>615.20001220703</ele>
        <time>2022-01-08T13:42:17Z</time>
      </trkpt>
      <trkpt lat="45.30373" lon="4.708">
        <ele>616.59997558594</ele>
        <time>2022-01-08T13:42:29Z</time>
      </trkpt>
      <trkpt lat="45.30384" lon="4.70796">
        <ele>617.79998779297</ele>
        <time>2022-01-08T13:42:38Z</time>
      </trkpt>
      <trkpt lat="45.30388" lon="4.70788">
        <ele>619.59997558594</ele>
        <time>2022-01-08T13:42:45Z</time>
      </trkpt>
      <trkpt lat="45.30377" lon="4.70778">
        <ele>621.79998779297</ele>
        <time>2022-01-08T13:42:55Z</time>
      </trkpt>
      <trkpt lat="45.30375" lon="4.70776">
        <ele>622.40002441406</ele>
        <time>2022-01-08T13:42:57Z</time>
      </trkpt>
      <trkpt lat="45.3037" lon="4.70774">
        <ele>622.79998779297</ele>
        <time>2022-01-08T13:43:02Z</time>
      </trkpt>
      <trkpt lat="45.30364" lon="4.70758">
        <ele>624.40002441406</ele>
        <time>2022-01-08T13:43:12Z</time>
      </trkpt>
      <trkpt lat="45.30359" lon="4.70732">
        <ele>626.20001220703</ele>
        <time>2022-01-08T13:43:27Z</time>
      </trkpt>
      <trkpt lat="45.30361" lon="4.70721">
        <ele>626.79998779297</ele>
        <time>2022-01-08T13:43:33Z</time>
      </trkpt>
      <trkpt lat="45.30368" lon="4.70704">
        <ele>628.40002441406</ele>
        <time>2022-01-08T13:43:46Z</time>
      </trkpt>
      <trkpt lat="45.30369" lon="4.70702">
        <ele>628.79998779297</ele>
        <time>2022-01-08T13:43:48Z</time>
      </trkpt>
      <trkpt lat="45.30376" lon="4.70687">
        <ele>629.59997558594</ele>
        <time>2022-01-08T13:44:01Z</time>
      </trkpt>
      <trkpt lat="45.30382" lon="4.70676">
        <ele>630.20001220703</ele>
        <time>2022-01-08T13:44:21Z</time>
      </trkpt>
      <trkpt lat="45.3039" lon="4.70661">
        <ele>631.20001220703</ele>
        <time>2022-01-08T13:44:40Z</time>
      </trkpt>
      <trkpt lat="45.30398" lon="4.70643">
        <ele>631.20001220703</ele>
        <time>2022-01-08T13:45:04Z</time>
      </trkpt>
      <trkpt lat="45.30401" lon="4.7064">
        <ele>631.59997558594</ele>
        <time>2022-01-08T13:45:08Z</time>
      </trkpt>
      <trkpt lat="45.30412" lon="4.70626">
        <ele>631.40002441406</ele>
        <time>2022-01-08T13:45:18Z</time>
      </trkpt>
      <trkpt lat="45.30415" lon="4.70625">
        <ele>631.40002441406</ele>
        <time>2022-01-08T13:45:20Z</time>
      </trkpt>
      <trkpt lat="45.30427" lon="4.70611">
        <ele>631.59997558594</ele>
        <time>2022-01-08T13:45:31Z</time>
      </trkpt>
      <trkpt lat="45.3043" lon="4.706">
        <ele>632.40002441406</ele>
        <time>2022-01-08T13:45:38Z</time>
      </trkpt>
      <trkpt lat="45.30433" lon="4.70562">
        <ele>633.79998779297</ele>
        <time>2022-01-08T13:45:55Z</time>
      </trkpt>
      <trkpt lat="45.30436" lon="4.70546">
        <ele>634.20001220703</ele>
        <time>2022-01-08T13:46:05Z</time>
      </trkpt>
      <trkpt lat="45.30436" lon="4.70522">
        <ele>635</ele>
        <time>2022-01-08T13:46:18Z</time>
      </trkpt>
      <trkpt lat="45.30441" lon="4.70489">
        <ele>636.20001220703</ele>
        <time>2022-01-08T13:46:34Z</time>
      </trkpt>
      <trkpt lat="45.3044" lon="4.70486">
        <ele>636.20001220703</ele>
        <time>2022-01-08T13:46:36Z</time>
      </trkpt>
      <trkpt lat="45.3044" lon="4.70474">
        <ele>636.79998779297</ele>
        <time>2022-01-08T13:46:42Z</time>
      </trkpt>
      <trkpt lat="45.30436" lon="4.70455">
        <ele>638.40002441406</ele>
        <time>2022-01-08T13:46:55Z</time>
      </trkpt>
      <trkpt lat="45.30433" lon="4.70447">
        <ele>639.40002441406</ele>
        <time>2022-01-08T13:47:00Z</time>
      </trkpt>
      <trkpt lat="45.30427" lon="4.70445">
        <ele>640.20001220703</ele>
        <time>2022-01-08T13:47:04Z</time>
      </trkpt>
      <trkpt lat="45.30423" lon="4.70445">
        <ele>641</ele>
        <time>2022-01-08T13:47:07Z</time>
      </trkpt>
      <trkpt lat="45.30418" lon="4.70448">
        <ele>642</ele>
        <time>2022-01-08T13:47:13Z</time>
      </trkpt>
      <trkpt lat="45.3041" lon="4.70437">
        <ele>643.20001220703</ele>
        <time>2022-01-08T13:47:22Z</time>
      </trkpt>
      <trkpt lat="45.30402" lon="4.70433">
        <ele>644</ele>
        <time>2022-01-08T13:47:33Z</time>
      </trkpt>
      <trkpt lat="45.30392" lon="4.70429">
        <ele>644.40002441406</ele>
        <time>2022-01-08T13:47:48Z</time>
      </trkpt>
      <trkpt lat="45.30385" lon="4.70429">
        <ele>645.20001220703</ele>
        <time>2022-01-08T13:47:52Z</time>
      </trkpt>
      <trkpt lat="45.30373" lon="4.70412">
        <ele>646</ele>
        <time>2022-01-08T13:48:06Z</time>
      </trkpt>
      <trkpt lat="45.30365" lon="4.70394">
        <ele>647.20001220703</ele>
        <time>2022-01-08T13:48:16Z</time>
      </trkpt>
      <trkpt lat="45.30362" lon="4.70383">
        <ele>648.59997558594</ele>
        <time>2022-01-08T13:48:23Z</time>
      </trkpt>
      <trkpt lat="45.30367" lon="4.70372">
        <ele>650.40002441406</ele>
        <time>2022-01-08T13:48:31Z</time>
      </trkpt>
      <trkpt lat="45.3037" lon="4.70369">
        <ele>651.20001220703</ele>
        <time>2022-01-08T13:48:35Z</time>
      </trkpt>
      <trkpt lat="45.30375" lon="4.70359">
        <ele>653</ele>
        <time>2022-01-08T13:48:43Z</time>
      </trkpt>
      <trkpt lat="45.30379" lon="4.70339">
        <ele>654</ele>
        <time>2022-01-08T13:48:53Z</time>
      </trkpt>
      <trkpt lat="45.30379" lon="4.7032">
        <ele>656.40002441406</ele>
        <time>2022-01-08T13:49:05Z</time>
      </trkpt>
      <trkpt lat="45.30376" lon="4.70306">
        <ele>657.40002441406</ele>
        <time>2022-01-08T13:49:11Z</time>
      </trkpt>
      <trkpt lat="45.30375" lon="4.70294">
        <ele>658.79998779297</ele>
        <time>2022-01-08T13:49:17Z</time>
      </trkpt>
      <trkpt lat="45.30372" lon="4.70289">
        <ele>659</ele>
        <time>2022-01-08T13:49:19Z</time>
      </trkpt>
      <trkpt lat="45.30368" lon="4.70287">
        <ele>659.20001220703</ele>
        <time>2022-01-08T13:49:22Z</time>
      </trkpt>
      <trkpt lat="45.30364" lon="4.70278">
        <ele>661.20001220703</ele>
        <time>2022-01-08T13:49:30Z</time>
      </trkpt>
      <trkpt lat="45.30357" lon="4.70271">
        <ele>662.79998779297</ele>
        <time>2022-01-08T13:49:38Z</time>
      </trkpt>
      <trkpt lat="45.30355" lon="4.70265">
        <ele>663.20001220703</ele>
        <time>2022-01-08T13:49:41Z</time>
      </trkpt>
      <trkpt lat="45.30352" lon="4.70252">
        <ele>665.20001220703</ele>
        <time>2022-01-08T13:49:53Z</time>
      </trkpt>
      <trkpt lat="45.30352" lon="4.70244">
        <ele>665.20001220703</ele>
        <time>2022-01-08T13:49:58Z</time>
      </trkpt>
      <trkpt lat="45.3035" lon="4.70236">
        <ele>665.20001220703</ele>
        <time>2022-01-08T13:50:04Z</time>
      </trkpt>
      <trkpt lat="45.3035" lon="4.70231">
        <ele>666</ele>
        <time>2022-01-08T13:50:09Z</time>
      </trkpt>
      <trkpt lat="45.30345" lon="4.70216">
        <ele>667.79998779297</ele>
        <time>2022-01-08T13:50:18Z</time>
      </trkpt>
      <trkpt lat="45.30345" lon="4.70213">
        <ele>667.79998779297</ele>
        <time>2022-01-08T13:50:19Z</time>
      </trkpt>
      <trkpt lat="45.30344" lon="4.70207">
        <ele>668.59997558594</ele>
        <time>2022-01-08T13:50:22Z</time>
      </trkpt>
      <trkpt lat="45.30345" lon="4.70188">
        <ele>670.20001220703</ele>
        <time>2022-01-08T13:50:31Z</time>
      </trkpt>
      <trkpt lat="45.30345" lon="4.70187">
        <ele>670.20001220703</ele>
        <time>2022-01-08T13:50:32Z</time>
      </trkpt>
      <trkpt lat="45.30346" lon="4.70169">
        <ele>672.79998779297</ele>
        <time>2022-01-08T13:50:44Z</time>
      </trkpt>
      <trkpt lat="45.30351" lon="4.70164">
        <ele>674.20001220703</ele>
        <time>2022-01-08T13:50:52Z</time>
      </trkpt>
      <trkpt lat="45.30359" lon="4.70165">
        <ele>674.59997558594</ele>
        <time>2022-01-08T13:50:58Z</time>
      </trkpt>
      <trkpt lat="45.3037" lon="4.70175">
        <ele>674</ele>
        <time>2022-01-08T13:51:06Z</time>
      </trkpt>
      <trkpt lat="45.30381" lon="4.7018">
        <ele>672.59997558594</ele>
        <time>2022-01-08T13:51:15Z</time>
      </trkpt>
      <trkpt lat="45.30384" lon="4.70182">
        <ele>672.40002441406</ele>
        <time>2022-01-08T13:51:18Z</time>
      </trkpt>
      <trkpt lat="45.30394" lon="4.70191">
        <ele>671.40002441406</ele>
        <time>2022-01-08T13:51:29Z</time>
      </trkpt>
      <trkpt lat="45.304" lon="4.70195">
        <ele>670.79998779297</ele>
        <time>2022-01-08T13:51:33Z</time>
      </trkpt>
      <trkpt lat="45.30405" lon="4.70194">
        <ele>670.79998779297</ele>
        <time>2022-01-08T13:51:36Z</time>
      </trkpt>
      <trkpt lat="45.3041" lon="4.70196">
        <ele>670.79998779297</ele>
        <time>2022-01-08T13:51:38Z</time>
      </trkpt>
      <trkpt lat="45.30422" lon="4.70207">
        <ele>670.59997558594</ele>
        <time>2022-01-08T13:51:45Z</time>
      </trkpt>
      <trkpt lat="45.30434" lon="4.70211">
        <ele>670</ele>
        <time>2022-01-08T13:51:50Z</time>
      </trkpt>
      <trkpt lat="45.30442" lon="4.70222">
        <ele>669.20001220703</ele>
        <time>2022-01-08T13:51:57Z</time>
      </trkpt>
      <trkpt lat="45.30454" lon="4.70223">
        <ele>667.40002441406</ele>
        <time>2022-01-08T13:52:08Z</time>
      </trkpt>
      <trkpt lat="45.30456" lon="4.70223">
        <ele>667.20001220703</ele>
        <time>2022-01-08T13:52:09Z</time>
      </trkpt>
      <trkpt lat="45.30459" lon="4.70227">
        <ele>666.79998779297</ele>
        <time>2022-01-08T13:52:13Z</time>
      </trkpt>
      <trkpt lat="45.30463" lon="4.70229">
        <ele>665.79998779297</ele>
        <time>2022-01-08T13:52:18Z</time>
      </trkpt>
      <trkpt lat="45.30476" lon="4.70233">
        <ele>664.59997558594</ele>
        <time>2022-01-08T13:52:27Z</time>
      </trkpt>
      <trkpt lat="45.30493" lon="4.70233">
        <ele>662.79998779297</ele>
        <time>2022-01-08T13:52:36Z</time>
      </trkpt>
      <trkpt lat="45.30505" lon="4.70237">
        <ele>661.59997558594</ele>
        <time>2022-01-08T13:52:44Z</time>
      </trkpt>
      <trkpt lat="45.30506" lon="4.70237">
        <ele>661.40002441406</ele>
        <time>2022-01-08T13:52:46Z</time>
      </trkpt>
      <trkpt lat="45.30527" lon="4.7024">
        <ele>658.59997558594</ele>
        <time>2022-01-08T13:53:00Z</time>
      </trkpt>
      <trkpt lat="45.30528" lon="4.70241">
        <ele>658.20001220703</ele>
        <time>2022-01-08T13:53:01Z</time>
      </trkpt>
      <trkpt lat="45.30537" lon="4.70241">
        <ele>656.79998779297</ele>
        <time>2022-01-08T13:53:08Z</time>
      </trkpt>
      <trkpt lat="45.30548" lon="4.70233">
        <ele>656</ele>
        <time>2022-01-08T13:53:21Z</time>
      </trkpt>
      <trkpt lat="45.30556" lon="4.70224">
        <ele>655.59997558594</ele>
        <time>2022-01-08T13:53:28Z</time>
      </trkpt>
      <trkpt lat="45.30566" lon="4.70205">
        <ele>655.59997558594</ele>
        <time>2022-01-08T13:53:40Z</time>
      </trkpt>
      <trkpt lat="45.3057" lon="4.70198">
        <ele>656</ele>
        <time>2022-01-08T13:53:44Z</time>
      </trkpt>
      <trkpt lat="45.30574" lon="4.70191">
        <ele>656.79998779297</ele>
        <time>2022-01-08T13:53:49Z</time>
      </trkpt>
      <trkpt lat="45.30582" lon="4.70182">
        <ele>658</ele>
        <time>2022-01-08T13:53:57Z</time>
      </trkpt>
      <trkpt lat="45.30599" lon="4.70164">
        <ele>655.79998779297</ele>
        <time>2022-01-08T13:54:18Z</time>
      </trkpt>
      <trkpt lat="45.30602" lon="4.70166">
        <ele>654.20001220703</ele>
        <time>2022-01-08T13:54:23Z</time>
      </trkpt>
      <trkpt lat="45.30603" lon="4.70168">
        <ele>653.79998779297</ele>
        <time>2022-01-08T13:54:25Z</time>
      </trkpt>
      <trkpt lat="45.30612" lon="4.70168">
        <ele>650</ele>
        <time>2022-01-08T13:54:36Z</time>
      </trkpt>
      <trkpt lat="45.30617" lon="4.70165">
        <ele>648.79998779297</ele>
        <time>2022-01-08T13:54:40Z</time>
      </trkpt>
      <trkpt lat="45.30617" lon="4.70166">
        <ele>648.59997558594</ele>
        <time>2022-01-08T13:54:41Z</time>
      </trkpt>
      <trkpt lat="45.30623" lon="4.70165">
        <ele>647.40002441406</ele>
        <time>2022-01-08T13:54:45Z</time>
      </trkpt>
      <trkpt lat="45.30632" lon="4.70158">
        <ele>646.20001220703</ele>
        <time>2022-01-08T13:54:51Z</time>
      </trkpt>
      <trkpt lat="45.30636" lon="4.70158">
        <ele>645.40002441406</ele>
        <time>2022-01-08T13:54:55Z</time>
      </trkpt>
      <trkpt lat="45.30638" lon="4.70158">
        <ele>645</ele>
        <time>2022-01-08T13:54:56Z</time>
      </trkpt>
      <trkpt lat="45.30648" lon="4.70156">
        <ele>642.79998779297</ele>
        <time>2022-01-08T13:55:03Z</time>
      </trkpt>
      <trkpt lat="45.30659" lon="4.70163">
        <ele>640.59997558594</ele>
        <time>2022-01-08T13:55:12Z</time>
      </trkpt>
      <trkpt lat="45.30672" lon="4.70161">
        <ele>641.20001220703</ele>
        <time>2022-01-08T13:55:30Z</time>
      </trkpt>
      <trkpt lat="45.30676" lon="4.70161">
        <ele>642</ele>
        <time>2022-01-08T13:55:35Z</time>
      </trkpt>
      <trkpt lat="45.30681" lon="4.70164">
        <ele>642</ele>
        <time>2022-01-08T13:55:44Z</time>
      </trkpt>
      <trkpt lat="45.30693" lon="4.70171">
        <ele>642</ele>
        <time>2022-01-08T13:55:54Z</time>
      </trkpt>
      <trkpt lat="45.30696" lon="4.70167">
        <ele>642</ele>
        <time>2022-01-08T13:55:57Z</time>
      </trkpt>
      <trkpt lat="45.30708" lon="4.70161">
        <ele>642.20001220703</ele>
        <time>2022-01-08T13:56:06Z</time>
      </trkpt>
      <trkpt lat="45.30718" lon="4.70156">
        <ele>642.59997558594</ele>
        <time>2022-01-08T13:56:16Z</time>
      </trkpt>
      <trkpt lat="45.30721" lon="4.70159">
        <ele>643.20001220703</ele>
        <time>2022-01-08T13:56:19Z</time>
      </trkpt>
      <trkpt lat="45.30732" lon="4.70151">
        <ele>643.79998779297</ele>
        <time>2022-01-08T13:56:27Z</time>
      </trkpt>
      <trkpt lat="45.30734" lon="4.70147">
        <ele>644.40002441406</ele>
        <time>2022-01-08T13:56:30Z</time>
      </trkpt>
      <trkpt lat="45.30737" lon="4.70148">
        <ele>645.20001220703</ele>
        <time>2022-01-08T13:56:33Z</time>
      </trkpt>
      <trkpt lat="45.30746" lon="4.70152">
        <ele>646</ele>
        <time>2022-01-08T13:56:41Z</time>
      </trkpt>
      <trkpt lat="45.30752" lon="4.70155">
        <ele>645.40002441406</ele>
        <time>2022-01-08T13:56:47Z</time>
      </trkpt>
      <trkpt lat="45.30754" lon="4.70156">
        <ele>645.20001220703</ele>
        <time>2022-01-08T13:56:50Z</time>
      </trkpt>
      <trkpt lat="45.30765" lon="4.70153">
        <ele>645.59997558594</ele>
        <time>2022-01-08T13:56:56Z</time>
      </trkpt>
      <trkpt lat="45.30772" lon="4.70162">
        <ele>646.79998779297</ele>
        <time>2022-01-08T13:57:02Z</time>
      </trkpt>
      <trkpt lat="45.30787" lon="4.70155">
        <ele>647.20001220703</ele>
        <time>2022-01-08T13:57:08Z</time>
      </trkpt>
      <trkpt lat="45.30797" lon="4.70151">
        <ele>647.40002441406</ele>
        <time>2022-01-08T13:57:14Z</time>
      </trkpt>
      <trkpt lat="45.30799" lon="4.7015">
        <ele>647.59997558594</ele>
        <time>2022-01-08T13:57:15Z</time>
      </trkpt>
      <trkpt lat="45.30805" lon="4.70148">
        <ele>648</ele>
        <time>2022-01-08T13:57:19Z</time>
      </trkpt>
      <trkpt lat="45.30812" lon="4.70146">
        <ele>647.40002441406</ele>
        <time>2022-01-08T13:57:26Z</time>
      </trkpt>
      <trkpt lat="45.30813" lon="4.70147">
        <ele>647.40002441406</ele>
        <time>2022-01-08T13:57:27Z</time>
      </trkpt>
      <trkpt lat="45.30815" lon="4.70147">
        <ele>647.40002441406</ele>
        <time>2022-01-08T13:57:30Z</time>
      </trkpt>
      <trkpt lat="45.30819" lon="4.70146">
        <ele>647.59997558594</ele>
        <time>2022-01-08T13:57:35Z</time>
      </trkpt>
      <trkpt lat="45.3083" lon="4.7015">
        <ele>647.20001220703</ele>
        <time>2022-01-08T13:57:46Z</time>
      </trkpt>
      <trkpt lat="45.3084" lon="4.7015">
        <ele>646</ele>
        <time>2022-01-08T13:57:53Z</time>
      </trkpt>
      <trkpt lat="45.30845" lon="4.70154">
        <ele>644.59997558594</ele>
        <time>2022-01-08T13:57:59Z</time>
      </trkpt>
      <trkpt lat="45.30848" lon="4.70153">
        <ele>644</ele>
        <time>2022-01-08T13:58:02Z</time>
      </trkpt>
      <trkpt lat="45.30854" lon="4.70156">
        <ele>643</ele>
        <time>2022-01-08T13:58:06Z</time>
      </trkpt>
      <trkpt lat="45.30859" lon="4.70158">
        <ele>642.20001220703</ele>
        <time>2022-01-08T13:58:09Z</time>
      </trkpt>
      <trkpt lat="45.30863" lon="4.70161">
        <ele>641.59997558594</ele>
        <time>2022-01-08T13:58:12Z</time>
      </trkpt>
      <trkpt lat="45.30868" lon="4.70161">
        <ele>640.40002441406</ele>
        <time>2022-01-08T13:58:16Z</time>
      </trkpt>
      <trkpt lat="45.30884" lon="4.70167">
        <ele>639</ele>
        <time>2022-01-08T13:58:24Z</time>
      </trkpt>
      <trkpt lat="45.30888" lon="4.70165">
        <ele>638.40002441406</ele>
        <time>2022-01-08T13:58:28Z</time>
      </trkpt>
      <trkpt lat="45.30901" lon="4.70165">
        <ele>637</ele>
        <time>2022-01-08T13:58:37Z</time>
      </trkpt>
      <trkpt lat="45.30903" lon="4.70164">
        <ele>636.79998779297</ele>
        <time>2022-01-08T13:58:38Z</time>
      </trkpt>
      <trkpt lat="45.30914" lon="4.70152">
        <ele>636.40002441406</ele>
        <time>2022-01-08T13:58:44Z</time>
      </trkpt>
      <trkpt lat="45.30926" lon="4.70143">
        <ele>635.40002441406</ele>
        <time>2022-01-08T13:58:53Z</time>
      </trkpt>
      <trkpt lat="45.30938" lon="4.70142">
        <ele>634.59997558594</ele>
        <time>2022-01-08T13:59:01Z</time>
      </trkpt>
      <trkpt lat="45.30951" lon="4.70133">
        <ele>633</ele>
        <time>2022-01-08T13:59:09Z</time>
      </trkpt>
      <trkpt lat="45.30955" lon="4.70133">
        <ele>632.20001220703</ele>
        <time>2022-01-08T13:59:12Z</time>
      </trkpt>
      <trkpt lat="45.30963" lon="4.7013">
        <ele>630.79998779297</ele>
        <time>2022-01-08T13:59:22Z</time>
      </trkpt>
      <trkpt lat="45.30973" lon="4.70114">
        <ele>628.59997558594</ele>
        <time>2022-01-08T13:59:41Z</time>
      </trkpt>
      <trkpt lat="45.30981" lon="4.70109">
        <ele>627.20001220703</ele>
        <time>2022-01-08T13:59:48Z</time>
      </trkpt>
      <trkpt lat="45.30987" lon="4.70107">
        <ele>626.40002441406</ele>
        <time>2022-01-08T13:59:52Z</time>
      </trkpt>
      <trkpt lat="45.30999" lon="4.70107">
        <ele>624.59997558594</ele>
        <time>2022-01-08T13:59:58Z</time>
      </trkpt>
      <trkpt lat="45.31005" lon="4.70107">
        <ele>623.20001220703</ele>
        <time>2022-01-08T14:00:03Z</time>
      </trkpt>
      <trkpt lat="45.31016" lon="4.70116">
        <ele>620.79998779297</ele>
        <time>2022-01-08T14:00:12Z</time>
      </trkpt>
      <trkpt lat="45.31024" lon="4.70137">
        <ele>617.79998779297</ele>
        <time>2022-01-08T14:00:26Z</time>
      </trkpt>
      <trkpt lat="45.31027" lon="4.70151">
        <ele>614.40002441406</ele>
        <time>2022-01-08T14:00:37Z</time>
      </trkpt>
      <trkpt lat="45.3103" lon="4.70163">
        <ele>612.59997558594</ele>
        <time>2022-01-08T14:00:43Z</time>
      </trkpt>
      <trkpt lat="45.31034" lon="4.70171">
        <ele>611.20001220703</ele>
        <time>2022-01-08T14:00:49Z</time>
      </trkpt>
      <trkpt lat="45.31042" lon="4.70174">
        <ele>609</ele>
        <time>2022-01-08T14:00:56Z</time>
      </trkpt>
      <trkpt lat="45.31052" lon="4.70187">
        <ele>606.79998779297</ele>
        <time>2022-01-08T14:01:06Z</time>
      </trkpt>
      <trkpt lat="45.31063" lon="4.70206">
        <ele>605.20001220703</ele>
        <time>2022-01-08T14:01:15Z</time>
      </trkpt>
      <trkpt lat="45.31066" lon="4.70214">
        <ele>604.79998779297</ele>
        <time>2022-01-08T14:01:18Z</time>
      </trkpt>
      <trkpt lat="45.31074" lon="4.70235">
        <ele>603.79998779297</ele>
        <time>2022-01-08T14:01:27Z</time>
      </trkpt>
      <trkpt lat="45.31078" lon="4.70255">
        <ele>603.20001220703</ele>
        <time>2022-01-08T14:01:35Z</time>
      </trkpt>
      <trkpt lat="45.31088" lon="4.70263">
        <ele>601.59997558594</ele>
        <time>2022-01-08T14:01:44Z</time>
      </trkpt>
      <trkpt lat="45.31107" lon="4.70266">
        <ele>599.40002441406</ele>
        <time>2022-01-08T14:01:56Z</time>
      </trkpt>
      <trkpt lat="45.31116" lon="4.70267">
        <ele>598.59997558594</ele>
        <time>2022-01-08T14:02:03Z</time>
      </trkpt>
      <trkpt lat="45.31125" lon="4.70284">
        <ele>597.40002441406</ele>
        <time>2022-01-08T14:02:12Z</time>
      </trkpt>
      <trkpt lat="45.31135" lon="4.70304">
        <ele>596.40002441406</ele>
        <time>2022-01-08T14:02:23Z</time>
      </trkpt>
      <trkpt lat="45.31143" lon="4.7032">
        <ele>595.79998779297</ele>
        <time>2022-01-08T14:02:31Z</time>
      </trkpt>
      <trkpt lat="45.31149" lon="4.70335">
        <ele>595</ele>
        <time>2022-01-08T14:02:39Z</time>
      </trkpt>
      <trkpt lat="45.31155" lon="4.70346">
        <ele>594.40002441406</ele>
        <time>2022-01-08T14:02:47Z</time>
      </trkpt>
      <trkpt lat="45.31159" lon="4.70361">
        <ele>594</ele>
        <time>2022-01-08T14:02:53Z</time>
      </trkpt>
      <trkpt lat="45.31176" lon="4.70398">
        <ele>593</ele>
        <time>2022-01-08T14:03:09Z</time>
      </trkpt>
      <trkpt lat="45.31179" lon="4.70401">
        <ele>593</ele>
        <time>2022-01-08T14:03:12Z</time>
      </trkpt>
      <trkpt lat="45.31189" lon="4.70409">
        <ele>592.59997558594</ele>
        <time>2022-01-08T14:03:22Z</time>
      </trkpt>
      <trkpt lat="45.31202" lon="4.70445">
        <ele>591.40002441406</ele>
        <time>2022-01-08T14:03:36Z</time>
      </trkpt>
      <trkpt lat="45.31206" lon="4.70455">
        <ele>590.79998779297</ele>
        <time>2022-01-08T14:03:40Z</time>
      </trkpt>
      <trkpt lat="45.31207" lon="4.70466">
        <ele>590.20001220703</ele>
        <time>2022-01-08T14:03:45Z</time>
      </trkpt>
      <trkpt lat="45.31214" lon="4.70486">
        <ele>589.40002441406</ele>
        <time>2022-01-08T14:03:54Z</time>
      </trkpt>
      <trkpt lat="45.31216" lon="4.70492">
        <ele>589</ele>
        <time>2022-01-08T14:03:59Z</time>
      </trkpt>
      <trkpt lat="45.3122" lon="4.70504">
        <ele>588.40002441406</ele>
        <time>2022-01-08T14:04:05Z</time>
      </trkpt>
      <trkpt lat="45.3122" lon="4.70514">
        <ele>587.79998779297</ele>
        <time>2022-01-08T14:04:11Z</time>
      </trkpt>
      <trkpt lat="45.31221" lon="4.70533">
        <ele>587</ele>
        <time>2022-01-08T14:04:18Z</time>
      </trkpt>
      <trkpt lat="45.31225" lon="4.70557">
        <ele>586</ele>
        <time>2022-01-08T14:04:27Z</time>
      </trkpt>
      <trkpt lat="45.31224" lon="4.70563">
        <ele>585.59997558594</ele>
        <time>2022-01-08T14:04:29Z</time>
      </trkpt>
      <trkpt lat="45.31222" lon="4.7057">
        <ele>585.59997558594</ele>
        <time>2022-01-08T14:04:31Z</time>
      </trkpt>
      <trkpt lat="45.31222" lon="4.70587">
        <ele>584.59997558594</ele>
        <time>2022-01-08T14:04:40Z</time>
      </trkpt>
      <trkpt lat="45.31221" lon="4.70599">
        <ele>584</ele>
        <time>2022-01-08T14:04:46Z</time>
      </trkpt>
      <trkpt lat="45.31223" lon="4.70616">
        <ele>583.40002441406</ele>
        <time>2022-01-08T14:04:54Z</time>
      </trkpt>
      <trkpt lat="45.31226" lon="4.70626">
        <ele>583</ele>
        <time>2022-01-08T14:05:00Z</time>
      </trkpt>
      <trkpt lat="45.31231" lon="4.70646">
        <ele>581.59997558594</ele>
        <time>2022-01-08T14:05:08Z</time>
      </trkpt>
      <trkpt lat="45.31234" lon="4.70649">
        <ele>581.40002441406</ele>
        <time>2022-01-08T14:05:10Z</time>
      </trkpt>
      <trkpt lat="45.31237" lon="4.70654">
        <ele>580.79998779297</ele>
        <time>2022-01-08T14:05:13Z</time>
      </trkpt>
      <trkpt lat="45.31238" lon="4.70661">
        <ele>580.59997558594</ele>
        <time>2022-01-08T14:05:15Z</time>
      </trkpt>
      <trkpt lat="45.31241" lon="4.70676">
        <ele>579.59997558594</ele>
        <time>2022-01-08T14:05:21Z</time>
      </trkpt>
      <trkpt lat="45.31248" lon="4.70713">
        <ele>576</ele>
        <time>2022-01-08T14:05:36Z</time>
      </trkpt>
      <trkpt lat="45.31243" lon="4.70735">
        <ele>574</ele>
        <time>2022-01-08T14:05:48Z</time>
      </trkpt>
      <trkpt lat="45.31239" lon="4.70755">
        <ele>571.79998779297</ele>
        <time>2022-01-08T14:06:00Z</time>
      </trkpt>
      <trkpt lat="45.31228" lon="4.70766">
        <ele>570</ele>
        <time>2022-01-08T14:06:11Z</time>
      </trkpt>
      <trkpt lat="45.31226" lon="4.70767">
        <ele>569.79998779297</ele>
        <time>2022-01-08T14:06:12Z</time>
      </trkpt>
      <trkpt lat="45.31208" lon="4.7078">
        <ele>567.20001220703</ele>
        <time>2022-01-08T14:06:24Z</time>
      </trkpt>
      <trkpt lat="45.31186" lon="4.70794">
        <ele>564.59997558594</ele>
        <time>2022-01-08T14:06:37Z</time>
      </trkpt>
      <trkpt lat="45.31168" lon="4.70805">
        <ele>563.20001220703</ele>
        <time>2022-01-08T14:06:49Z</time>
      </trkpt>
      <trkpt lat="45.31161" lon="4.70807">
        <ele>562.59997558594</ele>
        <time>2022-01-08T14:06:53Z</time>
      </trkpt>
      <trkpt lat="45.31152" lon="4.70804">
        <ele>561.59997558594</ele>
        <time>2022-01-08T14:06:59Z</time>
      </trkpt>
      <trkpt lat="45.3115" lon="4.70804">
        <ele>561.40002441406</ele>
        <time>2022-01-08T14:07:02Z</time>
      </trkpt>
      <trkpt lat="45.31144" lon="4.7081">
        <ele>560.59997558594</ele>
        <time>2022-01-08T14:07:12Z</time>
      </trkpt>
      <trkpt lat="45.31145" lon="4.70811">
        <ele>560.59997558594</ele>
        <time>2022-01-08T14:07:24Z</time>
      </trkpt>
      <trkpt lat="45.31149" lon="4.70816">
        <ele>560.59997558594</ele>
        <time>2022-01-08T14:07:29Z</time>
      </trkpt>
      <trkpt lat="45.31154" lon="4.7082">
        <ele>560.20001220703</ele>
        <time>2022-01-08T14:07:33Z</time>
      </trkpt>
      <trkpt lat="45.31161" lon="4.70823">
        <ele>559.40002441406</ele>
        <time>2022-01-08T14:07:39Z</time>
      </trkpt>
      <trkpt lat="45.31171" lon="4.7083">
        <ele>558</ele>
        <time>2022-01-08T14:07:47Z</time>
      </trkpt>
      <trkpt lat="45.31172" lon="4.70832">
        <ele>557.79998779297</ele>
        <time>2022-01-08T14:07:48Z</time>
      </trkpt>
      <trkpt lat="45.31182" lon="4.70841">
        <ele>557.40002441406</ele>
        <time>2022-01-08T14:07:56Z</time>
      </trkpt>
      <trkpt lat="45.31183" lon="4.70842">
        <ele>557.40002441406</ele>
        <time>2022-01-08T14:07:57Z</time>
      </trkpt>
      <trkpt lat="45.31203" lon="4.70838">
        <ele>557.59997558594</ele>
        <time>2022-01-08T14:08:06Z</time>
      </trkpt>
      <trkpt lat="45.31219" lon="4.70838">
        <ele>557.20001220703</ele>
        <time>2022-01-08T14:08:16Z</time>
      </trkpt>
      <trkpt lat="45.31231" lon="4.70838">
        <ele>557.20001220703</ele>
        <time>2022-01-08T14:08:24Z</time>
      </trkpt>
      <trkpt lat="45.31241" lon="4.70836">
        <ele>557.20001220703</ele>
        <time>2022-01-08T14:08:29Z</time>
      </trkpt>
      <trkpt lat="45.31251" lon="4.70839">
        <ele>556.59997558594</ele>
        <time>2022-01-08T14:08:37Z</time>
      </trkpt>
      <trkpt lat="45.31257" lon="4.70838">
        <ele>556.59997558594</ele>
        <time>2022-01-08T14:08:40Z</time>
      </trkpt>
      <trkpt lat="45.31276" lon="4.70838">
        <ele>554.79998779297</ele>
        <time>2022-01-08T14:08:53Z</time>
      </trkpt>
      <trkpt lat="45.3128" lon="4.70838">
        <ele>554</ele>
        <time>2022-01-08T14:08:57Z</time>
      </trkpt>
      <trkpt lat="45.31291" lon="4.70838">
        <ele>552.79998779297</ele>
        <time>2022-01-08T14:09:05Z</time>
      </trkpt>
      <trkpt lat="45.31313" lon="4.70839">
        <ele>549.79998779297</ele>
        <time>2022-01-08T14:09:19Z</time>
      </trkpt>
      <trkpt lat="45.31315" lon="4.70838">
        <ele>549.79998779297</ele>
        <time>2022-01-08T14:09:20Z</time>
      </trkpt>
      <trkpt lat="45.31323" lon="4.70837">
        <ele>548.40002441406</ele>
        <time>2022-01-08T14:09:27Z</time>
      </trkpt>
      <trkpt lat="45.31334" lon="4.70834">
        <ele>547.40002441406</ele>
        <time>2022-01-08T14:09:32Z</time>
      </trkpt>
      <trkpt lat="45.31339" lon="4.70836">
        <ele>546.20001220703</ele>
        <time>2022-01-08T14:09:37Z</time>
      </trkpt>
      <trkpt lat="45.31355" lon="4.70836">
        <ele>544.20001220703</ele>
        <time>2022-01-08T14:09:46Z</time>
      </trkpt>
      <trkpt lat="45.31356" lon="4.70838">
        <ele>544</ele>
        <time>2022-01-08T14:09:47Z</time>
      </trkpt>
      <trkpt lat="45.31358" lon="4.70839">
        <ele>543</ele>
        <time>2022-01-08T14:09:50Z</time>
      </trkpt>
      <trkpt lat="45.31363" lon="4.70841">
        <ele>542.20001220703</ele>
        <time>2022-01-08T14:09:54Z</time>
      </trkpt>
      <trkpt lat="45.31369" lon="4.70842">
        <ele>541.20001220703</ele>
        <time>2022-01-08T14:09:58Z</time>
      </trkpt>
      <trkpt lat="45.31385" lon="4.70845">
        <ele>539.20001220703</ele>
        <time>2022-01-08T14:10:08Z</time>
      </trkpt>
      <trkpt lat="45.31396" lon="4.70847">
        <ele>537.79998779297</ele>
        <time>2022-01-08T14:10:15Z</time>
      </trkpt>
      <trkpt lat="45.31405" lon="4.70851">
        <ele>536</ele>
        <time>2022-01-08T14:10:22Z</time>
      </trkpt>
      <trkpt lat="45.31414" lon="4.70852">
        <ele>534.59997558594</ele>
        <time>2022-01-08T14:10:27Z</time>
      </trkpt>
      <trkpt lat="45.31415" lon="4.70853">
        <ele>534.40002441406</ele>
        <time>2022-01-08T14:10:28Z</time>
      </trkpt>
      <trkpt lat="45.31433" lon="4.70854">
        <ele>532.20001220703</ele>
        <time>2022-01-08T14:10:40Z</time>
      </trkpt>
      <trkpt lat="45.31439" lon="4.70857">
        <ele>531.40002441406</ele>
        <time>2022-01-08T14:10:45Z</time>
      </trkpt>
      <trkpt lat="45.31447" lon="4.70857">
        <ele>530.79998779297</ele>
        <time>2022-01-08T14:10:50Z</time>
      </trkpt>
      <trkpt lat="45.31458" lon="4.70858">
        <ele>529.79998779297</ele>
        <time>2022-01-08T14:10:57Z</time>
      </trkpt>
      <trkpt lat="45.31475" lon="4.70867">
        <ele>528.40002441406</ele>
        <time>2022-01-08T14:11:08Z</time>
      </trkpt>
      <trkpt lat="45.31485" lon="4.70872">
        <ele>527.59997558594</ele>
        <time>2022-01-08T14:11:15Z</time>
      </trkpt>
      <trkpt lat="45.31492" lon="4.7087">
        <ele>526.79998779297</ele>
        <time>2022-01-08T14:11:20Z</time>
      </trkpt>
      <trkpt lat="45.31498" lon="4.70862">
        <ele>526.20001220703</ele>
        <time>2022-01-08T14:11:26Z</time>
      </trkpt>
      <trkpt lat="45.31497" lon="4.70843">
        <ele>526</ele>
        <time>2022-01-08T14:11:37Z</time>
      </trkpt>
      <trkpt lat="45.31496" lon="4.70835">
        <ele>526</ele>
        <time>2022-01-08T14:11:40Z</time>
      </trkpt>
      <trkpt lat="45.31495" lon="4.70819">
        <ele>526.20001220703</ele>
        <time>2022-01-08T14:11:46Z</time>
      </trkpt>
      <trkpt lat="45.31488" lon="4.70806">
        <ele>526.79998779297</ele>
        <time>2022-01-08T14:11:53Z</time>
      </trkpt>
      <trkpt lat="45.31486" lon="4.708">
        <ele>527</ele>
        <time>2022-01-08T14:11:59Z</time>
      </trkpt>
      <trkpt lat="45.3148" lon="4.70783">
        <ele>528.79998779297</ele>
        <time>2022-01-08T14:12:10Z</time>
      </trkpt>
      <trkpt lat="45.31479" lon="4.70777">
        <ele>529</ele>
        <time>2022-01-08T14:12:14Z</time>
      </trkpt>
      <trkpt lat="45.31475" lon="4.70764">
        <ele>529.40002441406</ele>
        <time>2022-01-08T14:12:23Z</time>
      </trkpt>
      <trkpt lat="45.31472" lon="4.70753">
        <ele>529.79998779297</ele>
        <time>2022-01-08T14:12:28Z</time>
      </trkpt>
      <trkpt lat="45.31471" lon="4.70744">
        <ele>530.59997558594</ele>
        <time>2022-01-08T14:12:34Z</time>
      </trkpt>
      <trkpt lat="45.31468" lon="4.70742">
        <ele>530.79998779297</ele>
        <time>2022-01-08T14:12:37Z</time>
      </trkpt>
      <trkpt lat="45.31468" lon="4.70734">
        <ele>531.40002441406</ele>
        <time>2022-01-08T14:12:40Z</time>
      </trkpt>
      <trkpt lat="45.31465" lon="4.70718">
        <ele>533.59997558594</ele>
        <time>2022-01-08T14:12:51Z</time>
      </trkpt>
      <trkpt lat="45.31464" lon="4.70711">
        <ele>534.20001220703</ele>
        <time>2022-01-08T14:12:54Z</time>
      </trkpt>
      <trkpt lat="45.31466" lon="4.70693">
        <ele>535.59997558594</ele>
        <time>2022-01-08T14:13:02Z</time>
      </trkpt>
      <trkpt lat="45.31467" lon="4.70692">
        <ele>536</ele>
        <time>2022-01-08T14:13:03Z</time>
      </trkpt>
      <trkpt lat="45.31468" lon="4.70689">
        <ele>536.20001220703</ele>
        <time>2022-01-08T14:13:04Z</time>
      </trkpt>
      <trkpt lat="45.31457" lon="4.70681">
        <ele>537</ele>
        <time>2022-01-08T14:13:10Z</time>
      </trkpt>
      <trkpt lat="45.31455" lon="4.70675">
        <ele>539.20001220703</ele>
        <time>2022-01-08T14:13:17Z</time>
      </trkpt>
      <trkpt lat="45.31453" lon="4.70672">
        <ele>539.79998779297</ele>
        <time>2022-01-08T14:13:20Z</time>
      </trkpt>
      <trkpt lat="45.31451" lon="4.70671">
        <ele>540.40002441406</ele>
        <time>2022-01-08T14:13:23Z</time>
      </trkpt>
      <trkpt lat="45.31448" lon="4.70667">
        <ele>541.20001220703</ele>
        <time>2022-01-08T14:13:28Z</time>
      </trkpt>
      <trkpt lat="45.31444" lon="4.70669">
        <ele>542.79998779297</ele>
        <time>2022-01-08T14:13:36Z</time>
      </trkpt>
      <trkpt lat="45.31445" lon="4.70661">
        <ele>543</ele>
        <time>2022-01-08T14:13:40Z</time>
      </trkpt>
      <trkpt lat="45.31449" lon="4.70654">
        <ele>543.20001220703</ele>
        <time>2022-01-08T14:13:42Z</time>
      </trkpt>
      <trkpt lat="45.31448" lon="4.70647">
        <ele>543.40002441406</ele>
        <time>2022-01-08T14:13:46Z</time>
      </trkpt>
      <trkpt lat="45.31448" lon="4.70643">
        <ele>543.79998779297</ele>
        <time>2022-01-08T14:13:48Z</time>
      </trkpt>
      <trkpt lat="45.31448" lon="4.70631">
        <ele>545.20001220703</ele>
        <time>2022-01-08T14:13:58Z</time>
      </trkpt>
      <trkpt lat="45.31448" lon="4.70626">
        <ele>546.40002441406</ele>
        <time>2022-01-08T14:14:03Z</time>
      </trkpt>
      <trkpt lat="45.31446" lon="4.70617">
        <ele>546.40002441406</ele>
        <time>2022-01-08T14:14:08Z</time>
      </trkpt>
      <trkpt lat="45.31445" lon="4.70606">
        <ele>547.20001220703</ele>
        <time>2022-01-08T14:14:15Z</time>
      </trkpt>
      <trkpt lat="45.31443" lon="4.70598">
        <ele>547.59997558594</ele>
        <time>2022-01-08T14:14:19Z</time>
      </trkpt>
      <trkpt lat="45.31442" lon="4.70596">
        <ele>547.79998779297</ele>
        <time>2022-01-08T14:14:21Z</time>
      </trkpt>
      <trkpt lat="45.31442" lon="4.70581">
        <ele>548.59997558594</ele>
        <time>2022-01-08T14:14:28Z</time>
      </trkpt>
      <trkpt lat="45.31443" lon="4.7057">
        <ele>549.40002441406</ele>
        <time>2022-01-08T14:14:34Z</time>
      </trkpt>
      <trkpt lat="45.31443" lon="4.70568">
        <ele>549.40002441406</ele>
        <time>2022-01-08T14:14:35Z</time>
      </trkpt>
      <trkpt lat="45.31441" lon="4.70552">
        <ele>550.20001220703</ele>
        <time>2022-01-08T14:14:43Z</time>
      </trkpt>
      <trkpt lat="45.31441" lon="4.7055">
        <ele>550.40002441406</ele>
        <time>2022-01-08T14:14:44Z</time>
      </trkpt>
      <trkpt lat="45.31441" lon="4.70545">
        <ele>550.59997558594</ele>
        <time>2022-01-08T14:14:46Z</time>
      </trkpt>
      <trkpt lat="45.31441" lon="4.70539">
        <ele>551</ele>
        <time>2022-01-08T14:14:49Z</time>
      </trkpt>
      <trkpt lat="45.31444" lon="4.70528">
        <ele>551.59997558594</ele>
        <time>2022-01-08T14:14:53Z</time>
      </trkpt>
      <trkpt lat="45.31444" lon="4.70523">
        <ele>552</ele>
        <time>2022-01-08T14:14:57Z</time>
      </trkpt>
      <trkpt lat="45.31441" lon="4.70516">
        <ele>553.20001220703</ele>
        <time>2022-01-08T14:15:04Z</time>
      </trkpt>
      <trkpt lat="45.31442" lon="4.70513">
        <ele>553.79998779297</ele>
        <time>2022-01-08T14:15:06Z</time>
      </trkpt>
      <trkpt lat="45.3144" lon="4.70512">
        <ele>554.20001220703</ele>
        <time>2022-01-08T14:15:08Z</time>
      </trkpt>
      <trkpt lat="45.31442" lon="4.705">
        <ele>556.40002441406</ele>
        <time>2022-01-08T14:15:16Z</time>
      </trkpt>
      <trkpt lat="45.3144" lon="4.7049">
        <ele>557.20001220703</ele>
        <time>2022-01-08T14:15:20Z</time>
      </trkpt>
      <trkpt lat="45.3144" lon="4.70484">
        <ele>558.20001220703</ele>
        <time>2022-01-08T14:15:24Z</time>
      </trkpt>
      <trkpt lat="45.31439" lon="4.7048">
        <ele>559</ele>
        <time>2022-01-08T14:15:27Z</time>
      </trkpt>
      <trkpt lat="45.31437" lon="4.70476">
        <ele>559.20001220703</ele>
        <time>2022-01-08T14:15:30Z</time>
      </trkpt>
      <trkpt lat="45.31441" lon="4.70454">
        <ele>558.59997558594</ele>
        <time>2022-01-08T14:15:40Z</time>
      </trkpt>
      <trkpt lat="45.31434" lon="4.70445">
        <ele>558.40002441406</ele>
        <time>2022-01-08T14:15:45Z</time>
      </trkpt>
      <trkpt lat="45.31441" lon="4.70428">
        <ele>558.20001220703</ele>
        <time>2022-01-08T14:15:55Z</time>
      </trkpt>
      <trkpt lat="45.31437" lon="4.70418">
        <ele>558</ele>
        <time>2022-01-08T14:16:02Z</time>
      </trkpt>
      <trkpt lat="45.31437" lon="4.70416">
        <ele>558</ele>
        <time>2022-01-08T14:16:04Z</time>
      </trkpt>
      <trkpt lat="45.3144" lon="4.70398">
        <ele>558.20001220703</ele>
        <time>2022-01-08T14:16:14Z</time>
      </trkpt>
      <trkpt lat="45.31439" lon="4.70379">
        <ele>559.20001220703</ele>
        <time>2022-01-08T14:16:23Z</time>
      </trkpt>
      <trkpt lat="45.31438" lon="4.70377">
        <ele>559.40002441406</ele>
        <time>2022-01-08T14:16:25Z</time>
      </trkpt>
      <trkpt lat="45.31444" lon="4.70354">
        <ele>560</ele>
        <time>2022-01-08T14:16:34Z</time>
      </trkpt>
      <trkpt lat="45.3145" lon="4.70326">
        <ele>559.79998779297</ele>
        <time>2022-01-08T14:16:45Z</time>
      </trkpt>
      <trkpt lat="45.31445" lon="4.70309">
        <ele>558.59997558594</ele>
        <time>2022-01-08T14:16:56Z</time>
      </trkpt>
      <trkpt lat="45.31445" lon="4.70294">
        <ele>558</ele>
        <time>2022-01-08T14:17:04Z</time>
      </trkpt>
      <trkpt lat="45.31444" lon="4.70287">
        <ele>557.59997558594</ele>
        <time>2022-01-08T14:17:08Z</time>
      </trkpt>
      <trkpt lat="45.31445" lon="4.70262">
        <ele>557.40002441406</ele>
        <time>2022-01-08T14:17:18Z</time>
      </trkpt>
      <trkpt lat="45.31443" lon="4.70243">
        <ele>556.59997558594</ele>
        <time>2022-01-08T14:17:27Z</time>
      </trkpt>
      <trkpt lat="45.3144" lon="4.70235">
        <ele>556</ele>
        <time>2022-01-08T14:17:32Z</time>
      </trkpt>
      <trkpt lat="45.3144" lon="4.70232">
        <ele>555.79998779297</ele>
        <time>2022-01-08T14:17:34Z</time>
      </trkpt>
      <trkpt lat="45.3143" lon="4.70222">
        <ele>555.59997558594</ele>
        <time>2022-01-08T14:17:42Z</time>
      </trkpt>
      <trkpt lat="45.31416" lon="4.7019">
        <ele>555.59997558594</ele>
        <time>2022-01-08T14:17:57Z</time>
      </trkpt>
      <trkpt lat="45.31415" lon="4.70188">
        <ele>555.59997558594</ele>
        <time>2022-01-08T14:17:58Z</time>
      </trkpt>
      <trkpt lat="45.3141" lon="4.70181">
        <ele>555.40002441406</ele>
        <time>2022-01-08T14:18:03Z</time>
      </trkpt>
      <trkpt lat="45.31404" lon="4.70178">
        <ele>555</ele>
        <time>2022-01-08T14:18:07Z</time>
      </trkpt>
      <trkpt lat="45.31385" lon="4.70165">
        <ele>553.20001220703</ele>
        <time>2022-01-08T14:18:24Z</time>
      </trkpt>
      <trkpt lat="45.31365" lon="4.70164">
        <ele>553.20001220703</ele>
        <time>2022-01-08T14:18:40Z</time>
      </trkpt>
      <trkpt lat="45.31348" lon="4.70175">
        <ele>553.79998779297</ele>
        <time>2022-01-08T14:18:56Z</time>
      </trkpt>
      <trkpt lat="45.31345" lon="4.70174">
        <ele>553.79998779297</ele>
        <time>2022-01-08T14:18:59Z</time>
      </trkpt>
      <trkpt lat="45.3134" lon="4.70176">
        <ele>553.79998779297</ele>
        <time>2022-01-08T14:19:02Z</time>
      </trkpt>
      <trkpt lat="45.31333" lon="4.70177">
        <ele>553.79998779297</ele>
        <time>2022-01-08T14:19:08Z</time>
      </trkpt>
      <trkpt lat="45.31319" lon="4.7017">
        <ele>552.59997558594</ele>
        <time>2022-01-08T14:19:19Z</time>
      </trkpt>
      <trkpt lat="45.31319" lon="4.70168">
        <ele>552.59997558594</ele>
        <time>2022-01-08T14:19:20Z</time>
      </trkpt>
      <trkpt lat="45.31318" lon="4.70161">
        <ele>552</ele>
        <time>2022-01-08T14:19:24Z</time>
      </trkpt>
      <trkpt lat="45.3131" lon="4.70151">
        <ele>551.59997558594</ele>
        <time>2022-01-08T14:19:32Z</time>
      </trkpt>
      <trkpt lat="45.31306" lon="4.70136">
        <ele>551.40002441406</ele>
        <time>2022-01-08T14:19:40Z</time>
      </trkpt>
      <trkpt lat="45.31303" lon="4.70127">
        <ele>551</ele>
        <time>2022-01-08T14:19:44Z</time>
      </trkpt>
      <trkpt lat="45.31303" lon="4.70107">
        <ele>549.59997558594</ele>
        <time>2022-01-08T14:19:54Z</time>
      </trkpt>
      <trkpt lat="45.31307" lon="4.70096">
        <ele>546.79998779297</ele>
        <time>2022-01-08T14:20:05Z</time>
      </trkpt>
      <trkpt lat="45.31312" lon="4.70081">
        <ele>544</ele>
        <time>2022-01-08T14:20:15Z</time>
      </trkpt>
      <trkpt lat="45.31314" lon="4.70066">
        <ele>541</ele>
        <time>2022-01-08T14:20:23Z</time>
      </trkpt>
      <trkpt lat="45.31314" lon="4.70056">
        <ele>540.20001220703</ele>
        <time>2022-01-08T14:20:26Z</time>
      </trkpt>
      <trkpt lat="45.31312" lon="4.70051">
        <ele>540</ele>
        <time>2022-01-08T14:20:29Z</time>
      </trkpt>
      <trkpt lat="45.31305" lon="4.70039">
        <ele>540.79998779297</ele>
        <time>2022-01-08T14:20:37Z</time>
      </trkpt>
      <trkpt lat="45.31303" lon="4.70032">
        <ele>541.59997558594</ele>
        <time>2022-01-08T14:20:42Z</time>
      </trkpt>
      <trkpt lat="45.31295" lon="4.70012">
        <ele>543</ele>
        <time>2022-01-08T14:20:56Z</time>
      </trkpt>
      <trkpt lat="45.31286" lon="4.70008">
        <ele>544</ele>
        <time>2022-01-08T14:21:01Z</time>
      </trkpt>
      <trkpt lat="45.3128" lon="4.70002">
        <ele>544.59997558594</ele>
        <time>2022-01-08T14:21:06Z</time>
      </trkpt>
      <trkpt lat="45.31274" lon="4.7">
        <ele>545.20001220703</ele>
        <time>2022-01-08T14:21:10Z</time>
      </trkpt>
      <trkpt lat="45.31272" lon="4.69996">
        <ele>545.79998779297</ele>
        <time>2022-01-08T14:21:13Z</time>
      </trkpt>
      <trkpt lat="45.31268" lon="4.69989">
        <ele>546.20001220703</ele>
        <time>2022-01-08T14:21:17Z</time>
      </trkpt>
      <trkpt lat="45.31265" lon="4.69984">
        <ele>546.59997558594</ele>
        <time>2022-01-08T14:21:20Z</time>
      </trkpt>
      <trkpt lat="45.3126" lon="4.69982">
        <ele>546.79998779297</ele>
        <time>2022-01-08T14:21:22Z</time>
      </trkpt>
      <trkpt lat="45.31254" lon="4.6997">
        <ele>547.59997558594</ele>
        <time>2022-01-08T14:21:30Z</time>
      </trkpt>
      <trkpt lat="45.31248" lon="4.69954">
        <ele>548</ele>
        <time>2022-01-08T14:21:37Z</time>
      </trkpt>
      <trkpt lat="45.31243" lon="4.6995">
        <ele>548.59997558594</ele>
        <time>2022-01-08T14:21:41Z</time>
      </trkpt>
      <trkpt lat="45.31243" lon="4.69936">
        <ele>549.40002441406</ele>
        <time>2022-01-08T14:21:49Z</time>
      </trkpt>
      <trkpt lat="45.31244" lon="4.69932">
        <ele>549.79998779297</ele>
        <time>2022-01-08T14:21:51Z</time>
      </trkpt>
      <trkpt lat="45.31244" lon="4.69928">
        <ele>550</ele>
        <time>2022-01-08T14:21:54Z</time>
      </trkpt>
      <trkpt lat="45.3124" lon="4.69916">
        <ele>551</ele>
        <time>2022-01-08T14:22:01Z</time>
      </trkpt>
      <trkpt lat="45.31244" lon="4.69901">
        <ele>551.20001220703</ele>
        <time>2022-01-08T14:22:05Z</time>
      </trkpt>
      <trkpt lat="45.31235" lon="4.6989">
        <ele>551.79998779297</ele>
        <time>2022-01-08T14:22:12Z</time>
      </trkpt>
      <trkpt lat="45.31231" lon="4.69888">
        <ele>552.20001220703</ele>
        <time>2022-01-08T14:22:14Z</time>
      </trkpt>
      <trkpt lat="45.31229" lon="4.69883">
        <ele>552.59997558594</ele>
        <time>2022-01-08T14:22:19Z</time>
      </trkpt>
      <trkpt lat="45.31224" lon="4.69871">
        <ele>553.59997558594</ele>
        <time>2022-01-08T14:22:27Z</time>
      </trkpt>
      <trkpt lat="45.31222" lon="4.69871">
        <ele>553.79998779297</ele>
        <time>2022-01-08T14:22:28Z</time>
      </trkpt>
      <trkpt lat="45.31219" lon="4.69867">
        <ele>554.20001220703</ele>
        <time>2022-01-08T14:22:32Z</time>
      </trkpt>
      <trkpt lat="45.31213" lon="4.69859">
        <ele>554.79998779297</ele>
        <time>2022-01-08T14:22:38Z</time>
      </trkpt>
      <trkpt lat="45.31207" lon="4.69856">
        <ele>555.20001220703</ele>
        <time>2022-01-08T14:22:41Z</time>
      </trkpt>
      <trkpt lat="45.312" lon="4.69855">
        <ele>555.79998779297</ele>
        <time>2022-01-08T14:22:46Z</time>
      </trkpt>
      <trkpt lat="45.31195" lon="4.69856">
        <ele>556.20001220703</ele>
        <time>2022-01-08T14:22:48Z</time>
      </trkpt>
      <trkpt lat="45.31188" lon="4.69851">
        <ele>557</ele>
        <time>2022-01-08T14:22:54Z</time>
      </trkpt>
      <trkpt lat="45.31188" lon="4.69848">
        <ele>557.59997558594</ele>
        <time>2022-01-08T14:22:57Z</time>
      </trkpt>
      <trkpt lat="45.31185" lon="4.69845">
        <ele>558</ele>
        <time>2022-01-08T14:23:00Z</time>
      </trkpt>
      <trkpt lat="45.31177" lon="4.6984">
        <ele>559.59997558594</ele>
        <time>2022-01-08T14:23:07Z</time>
      </trkpt>
      <trkpt lat="45.31173" lon="4.69836">
        <ele>560.59997558594</ele>
        <time>2022-01-08T14:23:11Z</time>
      </trkpt>
      <trkpt lat="45.31159" lon="4.69828">
        <ele>562</ele>
        <time>2022-01-08T14:23:21Z</time>
      </trkpt>
      <trkpt lat="45.31157" lon="4.69828">
        <ele>562.20001220703</ele>
        <time>2022-01-08T14:23:23Z</time>
      </trkpt>
      <trkpt lat="45.31145" lon="4.69825">
        <ele>563</ele>
        <time>2022-01-08T14:23:34Z</time>
      </trkpt>
      <trkpt lat="45.31135" lon="4.69824">
        <ele>564.40002441406</ele>
        <time>2022-01-08T14:23:43Z</time>
      </trkpt>
      <trkpt lat="45.31127" lon="4.69824">
        <ele>566.20001220703</ele>
        <time>2022-01-08T14:23:49Z</time>
      </trkpt>
      <trkpt lat="45.31117" lon="4.69828">
        <ele>567.40002441406</ele>
        <time>2022-01-08T14:23:57Z</time>
      </trkpt>
      <trkpt lat="45.31113" lon="4.69827">
        <ele>568.20001220703</ele>
        <time>2022-01-08T14:24:02Z</time>
      </trkpt>
      <trkpt lat="45.31102" lon="4.69826">
        <ele>569.59997558594</ele>
        <time>2022-01-08T14:24:11Z</time>
      </trkpt>
      <trkpt lat="45.31101" lon="4.69824">
        <ele>569.59997558594</ele>
        <time>2022-01-08T14:24:13Z</time>
      </trkpt>
      <trkpt lat="45.31093" lon="4.69819">
        <ele>571.40002441406</ele>
        <time>2022-01-08T14:24:24Z</time>
      </trkpt>
      <trkpt lat="45.31082" lon="4.69819">
        <ele>572</ele>
        <time>2022-01-08T14:24:28Z</time>
      </trkpt>
      <trkpt lat="45.31079" lon="4.69819">
        <ele>572.20001220703</ele>
        <time>2022-01-08T14:24:29Z</time>
      </trkpt>
      <trkpt lat="45.31072" lon="4.69814">
        <ele>572.79998779297</ele>
        <time>2022-01-08T14:24:34Z</time>
      </trkpt>
      <trkpt lat="45.31072" lon="4.69801">
        <ele>573</ele>
        <time>2022-01-08T14:24:40Z</time>
      </trkpt>
      <trkpt lat="45.31067" lon="4.69792">
        <ele>573.79998779297</ele>
        <time>2022-01-08T14:24:46Z</time>
      </trkpt>
      <trkpt lat="45.31061" lon="4.69785">
        <ele>574.40002441406</ele>
        <time>2022-01-08T14:24:52Z</time>
      </trkpt>
      <trkpt lat="45.31059" lon="4.69783">
        <ele>575</ele>
        <time>2022-01-08T14:24:55Z</time>
      </trkpt>
      <trkpt lat="45.31058" lon="4.6978">
        <ele>575.20001220703</ele>
        <time>2022-01-08T14:24:57Z</time>
      </trkpt>
      <trkpt lat="45.31057" lon="4.69773">
        <ele>575.79998779297</ele>
        <time>2022-01-08T14:25:01Z</time>
      </trkpt>
      <trkpt lat="45.31055" lon="4.6976">
        <ele>576.59997558594</ele>
        <time>2022-01-08T14:25:08Z</time>
      </trkpt>
      <trkpt lat="45.31045" lon="4.6975">
        <ele>577.59997558594</ele>
        <time>2022-01-08T14:25:15Z</time>
      </trkpt>
      <trkpt lat="45.31045" lon="4.69749">
        <ele>577.59997558594</ele>
        <time>2022-01-08T14:25:16Z</time>
      </trkpt>
      <trkpt lat="45.31046" lon="4.69745">
        <ele>577.79998779297</ele>
        <time>2022-01-08T14:25:18Z</time>
      </trkpt>
      <trkpt lat="45.31033" lon="4.69738">
        <ele>579</ele>
        <time>2022-01-08T14:25:25Z</time>
      </trkpt>
      <trkpt lat="45.31032" lon="4.69737">
        <ele>579.20001220703</ele>
        <time>2022-01-08T14:25:26Z</time>
      </trkpt>
      <trkpt lat="45.31033" lon="4.69729">
        <ele>579.59997558594</ele>
        <time>2022-01-08T14:25:31Z</time>
      </trkpt>
      <trkpt lat="45.31027" lon="4.69714">
        <ele>580.40002441406</ele>
        <time>2022-01-08T14:25:40Z</time>
      </trkpt>
      <trkpt lat="45.31026" lon="4.69704">
        <ele>580.79998779297</ele>
        <time>2022-01-08T14:25:44Z</time>
      </trkpt>
      <trkpt lat="45.31019" lon="4.69694">
        <ele>581.20001220703</ele>
        <time>2022-01-08T14:25:50Z</time>
      </trkpt>
      <trkpt lat="45.31021" lon="4.69683">
        <ele>581.59997558594</ele>
        <time>2022-01-08T14:25:55Z</time>
      </trkpt>
      <trkpt lat="45.31021" lon="4.69673">
        <ele>582</ele>
        <time>2022-01-08T14:25:58Z</time>
      </trkpt>
      <trkpt lat="45.31021" lon="4.69657">
        <ele>582.20001220703</ele>
        <time>2022-01-08T14:26:03Z</time>
      </trkpt>
      <trkpt lat="45.31015" lon="4.69655">
        <ele>583.40002441406</ele>
        <time>2022-01-08T14:26:09Z</time>
      </trkpt>
      <trkpt lat="45.31014" lon="4.69653">
        <ele>584</ele>
        <time>2022-01-08T14:26:12Z</time>
      </trkpt>
      <trkpt lat="45.31012" lon="4.69649">
        <ele>584</ele>
        <time>2022-01-08T14:26:15Z</time>
      </trkpt>
      <trkpt lat="45.31011" lon="4.69644">
        <ele>584</ele>
        <time>2022-01-08T14:26:19Z</time>
      </trkpt>
      <trkpt lat="45.31004" lon="4.69621">
        <ele>584.40002441406</ele>
        <time>2022-01-08T14:26:32Z</time>
      </trkpt>
      <trkpt lat="45.30997" lon="4.69612">
        <ele>584.20001220703</ele>
        <time>2022-01-08T14:26:38Z</time>
      </trkpt>
      <trkpt lat="45.30993" lon="4.69605">
        <ele>583.79998779297</ele>
        <time>2022-01-08T14:26:43Z</time>
      </trkpt>
      <trkpt lat="45.30993" lon="4.69585">
        <ele>581.79998779297</ele>
        <time>2022-01-08T14:26:53Z</time>
      </trkpt>
      <trkpt lat="45.30992" lon="4.69577">
        <ele>581.20001220703</ele>
        <time>2022-01-08T14:26:57Z</time>
      </trkpt>
      <trkpt lat="45.30992" lon="4.69574">
        <ele>581</ele>
        <time>2022-01-08T14:26:58Z</time>
      </trkpt>
      <trkpt lat="45.30987" lon="4.69568">
        <ele>580</ele>
        <time>2022-01-08T14:27:06Z</time>
      </trkpt>
      <trkpt lat="45.30987" lon="4.69567">
        <ele>579.79998779297</ele>
        <time>2022-01-08T14:27:07Z</time>
      </trkpt>
      <trkpt lat="45.30997" lon="4.69552">
        <ele>578.40002441406</ele>
        <time>2022-01-08T14:27:17Z</time>
      </trkpt>
      <trkpt lat="45.30998" lon="4.69552">
        <ele>578.20001220703</ele>
        <time>2022-01-08T14:27:20Z</time>
      </trkpt>
      <trkpt lat="45.31006" lon="4.69536">
        <ele>578.59997558594</ele>
        <time>2022-01-08T14:27:28Z</time>
      </trkpt>
      <trkpt lat="45.31007" lon="4.69533">
        <ele>579.20001220703</ele>
        <time>2022-01-08T14:27:32Z</time>
      </trkpt>
      <trkpt lat="45.31007" lon="4.69519">
        <ele>579.59997558594</ele>
        <time>2022-01-08T14:27:38Z</time>
      </trkpt>
      <trkpt lat="45.31007" lon="4.69511">
        <ele>579.79998779297</ele>
        <time>2022-01-08T14:27:42Z</time>
      </trkpt>
      <trkpt lat="45.30997" lon="4.69502">
        <ele>579.59997558594</ele>
        <time>2022-01-08T14:27:48Z</time>
      </trkpt>
      <trkpt lat="45.30995" lon="4.69482">
        <ele>579.40002441406</ele>
        <time>2022-01-08T14:27:56Z</time>
      </trkpt>
      <trkpt lat="45.30996" lon="4.69463">
        <ele>579.20001220703</ele>
        <time>2022-01-08T14:28:04Z</time>
      </trkpt>
      <trkpt lat="45.30992" lon="4.69449">
        <ele>579.40002441406</ele>
        <time>2022-01-08T14:28:16Z</time>
      </trkpt>
      <trkpt lat="45.30991" lon="4.69444">
        <ele>579.79998779297</ele>
        <time>2022-01-08T14:28:21Z</time>
      </trkpt>
      <trkpt lat="45.30985" lon="4.69422">
        <ele>580</ele>
        <time>2022-01-08T14:28:32Z</time>
      </trkpt>
      <trkpt lat="45.30979" lon="4.69411">
        <ele>580.20001220703</ele>
        <time>2022-01-08T14:28:37Z</time>
      </trkpt>
      <trkpt lat="45.30978" lon="4.69408">
        <ele>580.20001220703</ele>
        <time>2022-01-08T14:28:38Z</time>
      </trkpt>
      <trkpt lat="45.3098" lon="4.69394">
        <ele>581</ele>
        <time>2022-01-08T14:28:46Z</time>
      </trkpt>
      <trkpt lat="45.30973" lon="4.69379">
        <ele>582.20001220703</ele>
        <time>2022-01-08T14:28:55Z</time>
      </trkpt>
      <trkpt lat="45.30968" lon="4.69371">
        <ele>582.59997558594</ele>
        <time>2022-01-08T14:29:00Z</time>
      </trkpt>
      <trkpt lat="45.30968" lon="4.69355">
        <ele>583.59997558594</ele>
        <time>2022-01-08T14:29:10Z</time>
      </trkpt>
      <trkpt lat="45.30964" lon="4.69341">
        <ele>583.79998779297</ele>
        <time>2022-01-08T14:29:18Z</time>
      </trkpt>
      <trkpt lat="45.3096" lon="4.6934">
        <ele>583.79998779297</ele>
        <time>2022-01-08T14:29:21Z</time>
      </trkpt>
      <trkpt lat="45.30939" lon="4.69327">
        <ele>583.79998779297</ele>
        <time>2022-01-08T14:29:30Z</time>
      </trkpt>
      <trkpt lat="45.30933" lon="4.6932">
        <ele>583.20001220703</ele>
        <time>2022-01-08T14:29:34Z</time>
      </trkpt>
      <trkpt lat="45.30932" lon="4.69318">
        <ele>583.20001220703</ele>
        <time>2022-01-08T14:29:35Z</time>
      </trkpt>
      <trkpt lat="45.30932" lon="4.69316">
        <ele>583.20001220703</ele>
        <time>2022-01-08T14:29:37Z</time>
      </trkpt>
      <trkpt lat="45.30924" lon="4.69309">
        <ele>582.40002441406</ele>
        <time>2022-01-08T14:29:44Z</time>
      </trkpt>
      <trkpt lat="45.30923" lon="4.69308">
        <ele>582.20001220703</ele>
        <time>2022-01-08T14:29:45Z</time>
      </trkpt>
      <trkpt lat="45.30922" lon="4.69299">
        <ele>581.79998779297</ele>
        <time>2022-01-08T14:29:51Z</time>
      </trkpt>
      <trkpt lat="45.30917" lon="4.6928">
        <ele>582</ele>
        <time>2022-01-08T14:30:01Z</time>
      </trkpt>
      <trkpt lat="45.30917" lon="4.69278">
        <ele>582.20001220703</ele>
        <time>2022-01-08T14:30:02Z</time>
      </trkpt>
      <trkpt lat="45.30913" lon="4.69263">
        <ele>582.79998779297</ele>
        <time>2022-01-08T14:30:11Z</time>
      </trkpt>
      <trkpt lat="45.30908" lon="4.69253">
        <ele>583.20001220703</ele>
        <time>2022-01-08T14:30:20Z</time>
      </trkpt>
      <trkpt lat="45.30907" lon="4.69252">
        <ele>583.20001220703</ele>
        <time>2022-01-08T14:30:21Z</time>
      </trkpt>
      <trkpt lat="45.30905" lon="4.69249">
        <ele>583.40002441406</ele>
        <time>2022-01-08T14:30:23Z</time>
      </trkpt>
      <trkpt lat="45.30898" lon="4.69246">
        <ele>584.20001220703</ele>
        <time>2022-01-08T14:30:30Z</time>
      </trkpt>
      <trkpt lat="45.30889" lon="4.69238">
        <ele>584.79998779297</ele>
        <time>2022-01-08T14:30:38Z</time>
      </trkpt>
      <trkpt lat="45.30885" lon="4.69233">
        <ele>585.20001220703</ele>
        <time>2022-01-08T14:30:43Z</time>
      </trkpt>
      <trkpt lat="45.30875" lon="4.69229">
        <ele>585.40002441406</ele>
        <time>2022-01-08T14:30:49Z</time>
      </trkpt>
      <trkpt lat="45.30866" lon="4.69224">
        <ele>585.59997558594</ele>
        <time>2022-01-08T14:30:54Z</time>
      </trkpt>
      <trkpt lat="45.30852" lon="4.6921">
        <ele>586.40002441406</ele>
        <time>2022-01-08T14:31:02Z</time>
      </trkpt>
      <trkpt lat="45.30843" lon="4.69208">
        <ele>587.59997558594</ele>
        <time>2022-01-08T14:31:07Z</time>
      </trkpt>
      <trkpt lat="45.30839" lon="4.69201">
        <ele>587.59997558594</ele>
        <time>2022-01-08T14:31:20Z</time>
      </trkpt>
      <trkpt lat="45.30841" lon="4.69192">
        <ele>586.59997558594</ele>
        <time>2022-01-08T14:31:28Z</time>
      </trkpt>
      <trkpt lat="45.3084" lon="4.69186">
        <ele>586.59997558594</ele>
        <time>2022-01-08T14:31:32Z</time>
      </trkpt>
      <trkpt lat="45.30844" lon="4.69173">
        <ele>587</ele>
        <time>2022-01-08T14:31:39Z</time>
      </trkpt>
      <trkpt lat="45.30847" lon="4.69161">
        <ele>587.40002441406</ele>
        <time>2022-01-08T14:31:44Z</time>
      </trkpt>
      <trkpt lat="45.30849" lon="4.69145">
        <ele>587.40002441406</ele>
        <time>2022-01-08T14:31:50Z</time>
      </trkpt>
      <trkpt lat="45.30849" lon="4.69144">
        <ele>587.40002441406</ele>
        <time>2022-01-08T14:31:51Z</time>
      </trkpt>
      <trkpt lat="45.30849" lon="4.69135">
        <ele>587.40002441406</ele>
        <time>2022-01-08T14:31:57Z</time>
      </trkpt>
      <trkpt lat="45.30846" lon="4.69129">
        <ele>587</ele>
        <time>2022-01-08T14:32:01Z</time>
      </trkpt>
      <trkpt lat="45.30846" lon="4.69112">
        <ele>587.20001220703</ele>
        <time>2022-01-08T14:32:10Z</time>
      </trkpt>
      <trkpt lat="45.30851" lon="4.69102">
        <ele>587.20001220703</ele>
        <time>2022-01-08T14:32:14Z</time>
      </trkpt>
      <trkpt lat="45.30855" lon="4.69085">
        <ele>587.20001220703</ele>
        <time>2022-01-08T14:32:22Z</time>
      </trkpt>
      <trkpt lat="45.30854" lon="4.69085">
        <ele>587.20001220703</ele>
        <time>2022-01-08T14:32:23Z</time>
      </trkpt>
      <trkpt lat="45.30852" lon="4.69078">
        <ele>587.59997558594</ele>
        <time>2022-01-08T14:32:29Z</time>
      </trkpt>
      <trkpt lat="45.30852" lon="4.69073">
        <ele>589</ele>
        <time>2022-01-08T14:32:39Z</time>
      </trkpt>
      <trkpt lat="45.30861" lon="4.69072">
        <ele>590.40002441406</ele>
        <time>2022-01-08T14:32:52Z</time>
      </trkpt>
      <trkpt lat="45.30871" lon="4.6907">
        <ele>590.79998779297</ele>
        <time>2022-01-08T14:32:58Z</time>
      </trkpt>
      <trkpt lat="45.30876" lon="4.69066">
        <ele>591.20001220703</ele>
        <time>2022-01-08T14:33:02Z</time>
      </trkpt>
      <trkpt lat="45.30884" lon="4.69063">
        <ele>591.59997558594</ele>
        <time>2022-01-08T14:33:07Z</time>
      </trkpt>
      <trkpt lat="45.30886" lon="4.69064">
        <ele>592.20001220703</ele>
        <time>2022-01-08T14:33:10Z</time>
      </trkpt>
      <trkpt lat="45.30892" lon="4.69057">
        <ele>592.79998779297</ele>
        <time>2022-01-08T14:33:14Z</time>
      </trkpt>
      <trkpt lat="45.30904" lon="4.6905">
        <ele>593.79998779297</ele>
        <time>2022-01-08T14:33:25Z</time>
      </trkpt>
      <trkpt lat="45.30911" lon="4.69041">
        <ele>595.40002441406</ele>
        <time>2022-01-08T14:33:36Z</time>
      </trkpt>
      <trkpt lat="45.3092" lon="4.69029">
        <ele>597.79998779297</ele>
        <time>2022-01-08T14:33:48Z</time>
      </trkpt>
      <trkpt lat="45.30924" lon="4.69024">
        <ele>598.59997558594</ele>
        <time>2022-01-08T14:33:50Z</time>
      </trkpt>
      <trkpt lat="45.30928" lon="4.69015">
        <ele>600.20001220703</ele>
        <time>2022-01-08T14:33:57Z</time>
      </trkpt>
      <trkpt lat="45.30938" lon="4.69001">
        <ele>601.59997558594</ele>
        <time>2022-01-08T14:34:08Z</time>
      </trkpt>
      <trkpt lat="45.30939" lon="4.69">
        <ele>602</ele>
        <time>2022-01-08T14:34:09Z</time>
      </trkpt>
      <trkpt lat="45.30942" lon="4.6899">
        <ele>602.79998779297</ele>
        <time>2022-01-08T14:34:15Z</time>
      </trkpt>
      <trkpt lat="45.30945" lon="4.68987">
        <ele>603</ele>
        <time>2022-01-08T14:34:18Z</time>
      </trkpt>
      <trkpt lat="45.30946" lon="4.6898">
        <ele>604</ele>
        <time>2022-01-08T14:34:26Z</time>
      </trkpt>
      <trkpt lat="45.30948" lon="4.68975">
        <ele>604</ele>
        <time>2022-01-08T14:34:29Z</time>
      </trkpt>
      <trkpt lat="45.30949" lon="4.68963">
        <ele>604.79998779297</ele>
        <time>2022-01-08T14:34:36Z</time>
      </trkpt>
      <trkpt lat="45.3095" lon="4.68956">
        <ele>605</ele>
        <time>2022-01-08T14:34:39Z</time>
      </trkpt>
      <trkpt lat="45.30948" lon="4.68954">
        <ele>605.20001220703</ele>
        <time>2022-01-08T14:34:41Z</time>
      </trkpt>
      <trkpt lat="45.30949" lon="4.68936">
        <ele>605.59997558594</ele>
        <time>2022-01-08T14:34:48Z</time>
      </trkpt>
      <trkpt lat="45.30948" lon="4.68931">
        <ele>605.79998779297</ele>
        <time>2022-01-08T14:34:50Z</time>
      </trkpt>
      <trkpt lat="45.30941" lon="4.68921">
        <ele>606.59997558594</ele>
        <time>2022-01-08T14:34:57Z</time>
      </trkpt>
      <trkpt lat="45.30943" lon="4.68915">
        <ele>606.79998779297</ele>
        <time>2022-01-08T14:34:59Z</time>
      </trkpt>
      <trkpt lat="45.30938" lon="4.68912">
        <ele>607.20001220703</ele>
        <time>2022-01-08T14:35:03Z</time>
      </trkpt>
      <trkpt lat="45.30938" lon="4.68892">
        <ele>608.20001220703</ele>
        <time>2022-01-08T14:35:13Z</time>
      </trkpt>
      <trkpt lat="45.30929" lon="4.68886">
        <ele>608.79998779297</ele>
        <time>2022-01-08T14:35:19Z</time>
      </trkpt>
      <trkpt lat="45.30931" lon="4.68881">
        <ele>609</ele>
        <time>2022-01-08T14:35:21Z</time>
      </trkpt>
      <trkpt lat="45.30936" lon="4.68868">
        <ele>609.40002441406</ele>
        <time>2022-01-08T14:35:25Z</time>
      </trkpt>
      <trkpt lat="45.30932" lon="4.68859">
        <ele>610.40002441406</ele>
        <time>2022-01-08T14:35:31Z</time>
      </trkpt>
      <trkpt lat="45.30931" lon="4.68853">
        <ele>611</ele>
        <time>2022-01-08T14:35:36Z</time>
      </trkpt>
      <trkpt lat="45.30931" lon="4.68851">
        <ele>611</ele>
        <time>2022-01-08T14:35:37Z</time>
      </trkpt>
      <trkpt lat="45.30931" lon="4.68847">
        <ele>611.20001220703</ele>
        <time>2022-01-08T14:35:40Z</time>
      </trkpt>
      <trkpt lat="45.30931" lon="4.68836">
        <ele>611.40002441406</ele>
        <time>2022-01-08T14:35:47Z</time>
      </trkpt>
      <trkpt lat="45.30928" lon="4.68833">
        <ele>611.59997558594</ele>
        <time>2022-01-08T14:35:50Z</time>
      </trkpt>
      <trkpt lat="45.3093" lon="4.68815">
        <ele>612.59997558594</ele>
        <time>2022-01-08T14:35:57Z</time>
      </trkpt>
      <trkpt lat="45.3093" lon="4.68803">
        <ele>614</ele>
        <time>2022-01-08T14:36:05Z</time>
      </trkpt>
      <trkpt lat="45.30925" lon="4.68794">
        <ele>614.40002441406</ele>
        <time>2022-01-08T14:36:11Z</time>
      </trkpt>
      <trkpt lat="45.30927" lon="4.68788">
        <ele>614.79998779297</ele>
        <time>2022-01-08T14:36:14Z</time>
      </trkpt>
      <trkpt lat="45.30928" lon="4.68779">
        <ele>614.79998779297</ele>
        <time>2022-01-08T14:36:18Z</time>
      </trkpt>
      <trkpt lat="45.3093" lon="4.68761">
        <ele>615</ele>
        <time>2022-01-08T14:36:25Z</time>
      </trkpt>
      <trkpt lat="45.30927" lon="4.68749">
        <ele>614.79998779297</ele>
        <time>2022-01-08T14:36:32Z</time>
      </trkpt>
      <trkpt lat="45.30927" lon="4.68734">
        <ele>615</ele>
        <time>2022-01-08T14:36:41Z</time>
      </trkpt>
      <trkpt lat="45.30925" lon="4.6873">
        <ele>615.40002441406</ele>
        <time>2022-01-08T14:36:44Z</time>
      </trkpt>
      <trkpt lat="45.30924" lon="4.68722">
        <ele>615.40002441406</ele>
        <time>2022-01-08T14:36:49Z</time>
      </trkpt>
      <trkpt lat="45.30917" lon="4.68705">
        <ele>615.40002441406</ele>
        <time>2022-01-08T14:36:58Z</time>
      </trkpt>
      <trkpt lat="45.30916" lon="4.68698">
        <ele>615.59997558594</ele>
        <time>2022-01-08T14:37:01Z</time>
      </trkpt>
      <trkpt lat="45.30911" lon="4.68686">
        <ele>615.59997558594</ele>
        <time>2022-01-08T14:37:06Z</time>
      </trkpt>
      <trkpt lat="45.3091" lon="4.68682">
        <ele>615.79998779297</ele>
        <time>2022-01-08T14:37:10Z</time>
      </trkpt>
      <trkpt lat="45.30909" lon="4.68674">
        <ele>616.40002441406</ele>
        <time>2022-01-08T14:37:15Z</time>
      </trkpt>
      <trkpt lat="45.30908" lon="4.68667">
        <ele>616.59997558594</ele>
        <time>2022-01-08T14:37:20Z</time>
      </trkpt>
      <trkpt lat="45.30902" lon="4.68658">
        <ele>617.79998779297</ele>
        <time>2022-01-08T14:37:29Z</time>
      </trkpt>
      <trkpt lat="45.30897" lon="4.68655">
        <ele>618</ele>
        <time>2022-01-08T14:37:33Z</time>
      </trkpt>
      <trkpt lat="45.30895" lon="4.68654">
        <ele>618.20001220703</ele>
        <time>2022-01-08T14:37:34Z</time>
      </trkpt>
      <trkpt lat="45.30884" lon="4.68642">
        <ele>620</ele>
        <time>2022-01-08T14:37:44Z</time>
      </trkpt>
      <trkpt lat="45.3088" lon="4.6864">
        <ele>620.79998779297</ele>
        <time>2022-01-08T14:37:48Z</time>
      </trkpt>
      <trkpt lat="45.3087" lon="4.68629">
        <ele>622</ele>
        <time>2022-01-08T14:37:55Z</time>
      </trkpt>
      <trkpt lat="45.30864" lon="4.68628">
        <ele>623</ele>
        <time>2022-01-08T14:38:01Z</time>
      </trkpt>
      <trkpt lat="45.3086" lon="4.68626">
        <ele>623.59997558594</ele>
        <time>2022-01-08T14:38:04Z</time>
      </trkpt>
      <trkpt lat="45.30856" lon="4.68624">
        <ele>624.59997558594</ele>
        <time>2022-01-08T14:38:10Z</time>
      </trkpt>
      <trkpt lat="45.30851" lon="4.68619">
        <ele>626.20001220703</ele>
        <time>2022-01-08T14:38:17Z</time>
      </trkpt>
      <trkpt lat="45.3085" lon="4.68619">
        <ele>626.40002441406</ele>
        <time>2022-01-08T14:38:18Z</time>
      </trkpt>
      <trkpt lat="45.30843" lon="4.68619">
        <ele>627.59997558594</ele>
        <time>2022-01-08T14:38:23Z</time>
      </trkpt>
      <trkpt lat="45.30841" lon="4.6862">
        <ele>627.79998779297</ele>
        <time>2022-01-08T14:38:24Z</time>
      </trkpt>
      <trkpt lat="45.30827" lon="4.68618">
        <ele>629.59997558594</ele>
        <time>2022-01-08T14:38:34Z</time>
      </trkpt>
      <trkpt lat="45.30823" lon="4.68619">
        <ele>630</ele>
        <time>2022-01-08T14:38:37Z</time>
      </trkpt>
      <trkpt lat="45.30813" lon="4.68621">
        <ele>631</ele>
        <time>2022-01-08T14:38:43Z</time>
      </trkpt>
      <trkpt lat="45.30812" lon="4.68621">
        <ele>631</ele>
        <time>2022-01-08T14:38:44Z</time>
      </trkpt>
      <trkpt lat="45.3081" lon="4.68614">
        <ele>631.40002441406</ele>
        <time>2022-01-08T14:38:49Z</time>
      </trkpt>
      <trkpt lat="45.30807" lon="4.68602">
        <ele>631.79998779297</ele>
        <time>2022-01-08T14:38:57Z</time>
      </trkpt>
      <trkpt lat="45.30808" lon="4.68581">
        <ele>631.59997558594</ele>
        <time>2022-01-08T14:39:08Z</time>
      </trkpt>
      <trkpt lat="45.30809" lon="4.68575">
        <ele>631.79998779297</ele>
        <time>2022-01-08T14:39:21Z</time>
      </trkpt>
      <trkpt lat="45.3081" lon="4.68575">
        <ele>631.79998779297</ele>
        <time>2022-01-08T14:39:23Z</time>
      </trkpt>
    </trkseg>
  </trk>
</gpx>